Wetterdaten: Sonntag, 22.06.2014
Datum Zeit Temp. Aussen +5cm Feuchte Auss Luftdruck Regen Sonnenschein Regendauer UV Solar Windben
22.06.2014 00:00 15,7 C 13,9 C 79 % 1017,6 hPa 0,0 l/m 0 min 0 min 0,0 UV-I 0 W/m 0,0 km/h (0 Bft)
22.06.2014 00:02 15,6 C 13,9 C 80 % 1017,6 hPa 0,0 l/m 0 min 0 min 0,0 UV-I 0 W/m 0,0 km/h (0 Bft)
22.06.2014 00:06 15,4 C 13,3 C 80 % 1017,6 hPa 0,0 l/m 0 min 0 min 0,0 UV-I 0 W/m 0,0 km/h (0 Bft)
22.06.2014 00:08 15,3 C 13,3 C 80 % 1017,6 hPa 0,0 l/m 0 min 0 min 0,0 UV-I 0 W/m 0,0 km/h (0 Bft)
22.06.2014 00:10 15,3 C 13,3 C 81 % 1017,6 hPa 0,0 l/m 0 min 0 min 0,0 UV-I 0 W/m 0,0 km/h (0 Bft)
22.06.2014 00:12 15,2 C 12,8 C 81 % 1017,6 hPa 0,0 l/m 0 min 0 min 0,0 UV-I 0 W/m 0,0 km/h (0 Bft)
22.06.2014 00:14 15,2 C 12,8 C 81 % 1017,6 hPa 0,0 l/m 0 min 0 min 0,0 UV-I 0 W/m 0,0 km/h (0 Bft)
22.06.2014 00:16 15,2 C 12,8 C 81 % 1017,7 hPa 0,0 l/m 0 min 0 min 0,0 UV-I 0 W/m 0,0 km/h (0 Bft)
22.06.2014 00:18 15,1 C 12,8 C 81 % 1017,6 hPa 0,0 l/m 0 min 0 min 0,0 UV-I 0 W/m 0,0 km/h (0 Bft)
22.06.2014 00:20 14,9 C 12,8 C 82 % 1017,6 hPa 0,0 l/m 0 min 0 min 0,0 UV-I 0 W/m 0,0 km/h (0 Bft)
22.06.2014 00:22 14,9 C 12,8 C 82 % 1017,6 hPa 0,0 l/m 0 min 0 min 0,0 UV-I 0 W/m 0,0 km/h (0 Bft)
22.06.2014 00:24 14,8 C 12,8 C 82 % 1017,7 hPa 0,0 l/m 0 min 0 min 0,0 UV-I 0 W/m 0,0 km/h (0 Bft)
22.06.2014 00:26 14,7 C 12,8 C 82 % 1017,6 hPa 0,0 l/m 0 min 0 min 0,0 UV-I 0 W/m 0,0 km/h (0 Bft)
22.06.2014 00:28 14,7 C 12,8 C 83 % 1017,7 hPa 0,0 l/m 0 min 0 min 0,0 UV-I 0 W/m 0,0 km/h (0 Bft)
22.06.2014 00:30 14,6 C 12,2 C 83 % 1017,7 hPa 0,0 l/m 0 min 0 min 0,0 UV-I 0 W/m 0,0 km/h (0 Bft)
22.06.2014 00:32 14,5 C 12,2 C 83 % 1017,6 hPa 0,0 l/m 0 min 0 min 0,0 UV-I 0 W/m 0,0 km/h (0 Bft)
22.06.2014 00:34 14,4 C 12,2 C 83 % 1017,6 hPa 0,0 l/m 0 min 0 min 0,0 UV-I 0 W/m 0,0 km/h (0 Bft)
22.06.2014 00:36 14,3 C 12,2 C 83 % 1017,6 hPa 0,0 l/m 0 min 0 min 0,0 UV-I 0 W/m 0,0 km/h (0 Bft)
22.06.2014 00:38 14,3 C 12,2 C 84 % 1017,7 hPa 0,0 l/m 0 min 0 min 0,0 UV-I 0 W/m 0,0 km/h (0 Bft)
22.06.2014 00:40 14,3 C 12,2 C 84 % 1017,7 hPa 0,0 l/m 0 min 0 min 0,0 UV-I 0 W/m 0,0 km/h (0 Bft)
22.06.2014 00:42 14,2 C 12,2 C 84 % 1017,6 hPa 0,0 l/m 0 min 0 min 0,0 UV-I 0 W/m 0,0 km/h (0 Bft)
22.06.2014 00:44 14,2 C 12,2 C 84 % 1017,6 hPa 0,0 l/m 0 min 0 min 0,0 UV-I 0 W/m 0,0 km/h (0 Bft)
22.06.2014 00:46 14,2 C 12,2 C 84 % 1017,6 hPa 0,0 l/m 0 min 0 min 0,0 UV-I 0 W/m 0,0 km/h (0 Bft)
22.06.2014 00:48 14,2 C 11,7 C 84 % 1017,6 hPa 0,0 l/m 0 min 0 min 0,0 UV-I 0 W/m 0,0 km/h (0 Bft)
22.06.2014 00:50 14,2 C 11,7 C 84 % 1017,5 hPa 0,0 l/m 0 min 0 min 0,0 UV-I 0 W/m 0,0 km/h (0 Bft)
22.06.2014 00:52 14,2 C 11,7 C 85 % 1017,6 hPa 0,0 l/m 0 min 0 min 0,0 UV-I 0 W/m 0,0 km/h (0 Bft)
22.06.2014 00:54 14,2 C 11,7 C 85 % 1017,6 hPa 0,0 l/m 0 min 0 min 0,0 UV-I 0 W/m 0,0 km/h (0 Bft)
22.06.2014 00:56 14,2 C 11,7 C 85 % 1017,7 hPa 0,0 l/m 0 min 0 min 0,0 UV-I 0 W/m 0,0 km/h (0 Bft)
22.06.2014 00:58 14,2 C 11,7 C 85 % 1017,6 hPa 0,0 l/m 0 min 0 min 0,0 UV-I 0 W/m 0,0 km/h (0 Bft)
22.06.2014 01:00 14,1 C 11,7 C 85 % 1017,6 hPa 0,0 l/m 0 min 0 min 0,0 UV-I 0 W/m 0,0 km/h (0 Bft)
22.06.2014 01:02 14,1 C 11,7 C 85 % 1017,6 hPa 0,0 l/m 0 min 0 min 0,0 UV-I 0 W/m 0,0 km/h (0 Bft)
22.06.2014 01:04 14,0 C 11,7 C 86 % 1017,6 hPa 0,0 l/m 0 min 0 min 0,0 UV-I 0 W/m 0,0 km/h (0 Bft)
22.06.2014 01:06 14,0 C 11,7 C 86 % 1017,6 hPa 0,0 l/m 0 min 0 min 0,0 UV-I 0 W/m 0,0 km/h (0 Bft)
22.06.2014 01:08 14,0 C 11,7 C 86 % 1017,6 hPa 0,0 l/m 0 min 0 min 0,0 UV-I 0 W/m 0,0 km/h (0 Bft)
22.06.2014 01:10 13,9 C 11,7 C 86 % 1017,6 hPa 0,0 l/m 0 min 0 min 0,0 UV-I 0 W/m 0,0 km/h (0 Bft)
22.06.2014 01:12 13,9 C 11,7 C 86 % 1017,6 hPa 0,0 l/m 0 min 0 min 0,0 UV-I 0 W/m 0,0 km/h (0 Bft)
22.06.2014 01:14 13,9 C 11,7 C 86 % 1017,6 hPa 0,0 l/m 0 min 0 min 0,0 UV-I 0 W/m 0,0 km/h (0 Bft)
22.06.2014 01:16 13,8 C 11,7 C 86 % 1017,6 hPa 0,0 l/m 0 min 0 min 0,0 UV-I 0 W/m 0,0 km/h (0 Bft)
22.06.2014 01:18 13,8 C 11,7 C 86 % 1017,6 hPa 0,0 l/m 0 min 0 min 0,0 UV-I 0 W/m 0,0 km/h (0 Bft)
22.06.2014 01:20 13,7 C 11,7 C 86 % 1017,6 hPa 0,0 l/m 0 min 0 min 0,0 UV-I 0 W/m 0,0 km/h (0 Bft)
22.06.2014 01:22 13,7 C 11,7 C 86 % 1017,6 hPa 0,0 l/m 0 min 0 min 0,0 UV-I 0 W/m 0,0 km/h (0 Bft)
22.06.2014 01:24 13,7 C 11,7 C 87 % 1017,6 hPa 0,0 l/m 0 min 0 min 0,0 UV-I 0 W/m 0,0 km/h (0 Bft)
22.06.2014 01:26 13,7 C 11,7 C 87 % 1017,6 hPa 0,0 l/m 0 min 0 min 0,0 UV-I 0 W/m 0,0 km/h (0 Bft)
22.06.2014 01:28 13,6 C 11,7 C 87 % 1017,7 hPa 0,0 l/m 0 min 0 min 0,0 UV-I 0 W/m 0,0 km/h (0 Bft)
22.06.2014 01:30 13,6 C 11,7 C 87 % 1017,6 hPa 0,0 l/m 0 min 0 min 0,0 UV-I 0 W/m 0,0 km/h (0 Bft)
22.06.2014 01:32 13,6 C 11,7 C 87 % 1017,7 hPa 0,0 l/m 0 min 0 min 0,0 UV-I 0 W/m 0,0 km/h (0 Bft)
22.06.2014 01:34 13,6 C 11,7 C 87 % 1017,7 hPa 0,0 l/m 0 min 0 min 0,0 UV-I 0 W/m 0,0 km/h (0 Bft)
22.06.2014 01:36 13,7 C 11,7 C 87 % 1017,7 hPa 0,0 l/m 0 min 0 min 0,0 UV-I 0 W/m 0,0 km/h (0 Bft)
22.06.2014 01:38 13,7 C 11,7 C 87 % 1017,7 hPa 0,0 l/m 0 min 0 min 0,0 UV-I 0 W/m 0,0 km/h (0 Bft)
22.06.2014 01:40 13,8 C 11,7 C 87 % 1017,7 hPa 0,0 l/m 0 min 0 min 0,0 UV-I 0 W/m 0,0 km/h (0 Bft)
22.06.2014 01:42 13,8 C 11,7 C 87 % 1017,7 hPa 0,0 l/m 0 min 0 min 0,0 UV-I 0 W/m 0,0 km/h (0 Bft)
22.06.2014 01:44 13,8 C 11,7 C 87 % 1017,6 hPa 0,0 l/m 0 min 0 min 0,0 UV-I 0 W/m 0,0 km/h (0 Bft)
22.06.2014 01:46 13,8 C 11,7 C 87 % 1017,6 hPa 0,0 l/m 0 min 0 min 0,0 UV-I 0 W/m 0,0 km/h (0 Bft)
22.06.2014 01:48 13,8 C 11,7 C 88 % 1017,7 hPa 0,0 l/m 0 min 0 min 0,0 UV-I 0 W/m 0,0 km/h (0 Bft)
22.06.2014 01:50 13,9 C 12,2 C 88 % 1017,7 hPa 0,0 l/m 0 min 0 min 0,0 UV-I 0 W/m 0,0 km/h (0 Bft)
22.06.2014 01:52 13,9 C 12,2 C 88 % 1017,7 hPa 0,0 l/m 0 min 0 min 0,0 UV-I 0 W/m 0,0 km/h (0 Bft)
22.06.2014 01:54 13,9 C 12,2 C 88 % 1017,8 hPa 0,0 l/m 0 min 0 min 0,0 UV-I 0 W/m 0,0 km/h (0 Bft)
22.06.2014 01:56 13,9 C 12,2 C 88 % 1017,7 hPa 0,0 l/m 0 min 0 min 0,0 UV-I 0 W/m 0,0 km/h (0 Bft)
22.06.2014 01:58 14,0 C 12,2 C 88 % 1017,7 hPa 0,0 l/m 0 min 0 min 0,0 UV-I 0 W/m 0,0 km/h (0 Bft)
22.06.2014 02:00 14,0 C 12,2 C 88 % 1017,7 hPa 0,0 l/m 0 min 0 min 0,0 UV-I 0 W/m 0,0 km/h (0 Bft)
22.06.2014 02:02 14,1 C 12,2 C 88 % 1017,7 hPa 0,0 l/m 0 min 0 min 0,0 UV-I 0 W/m 0,0 km/h (0 Bft)
22.06.2014 02:04 14,0 C 12,2 C 88 % 1017,6 hPa 0,0 l/m 0 min 0 min 0,0 UV-I 0 W/m 0,0 km/h (0 Bft)
22.06.2014 02:06 14,0 C 12,2 C 88 % 1017,6 hPa 0,0 l/m 0 min 0 min 0,0 UV-I 0 W/m 0,0 km/h (0 Bft)
22.06.2014 02:08 14,0 C 12,2 C 88 % 1017,7 hPa 0,0 l/m 0 min 0 min 0,0 UV-I 0 W/m 0,0 km/h (0 Bft)
22.06.2014 02:10 14,0 C 12,2 C 88 % 1017,7 hPa 0,0 l/m 0 min 0 min 0,0 UV-I 0 W/m 0,0 km/h (0 Bft)
22.06.2014 02:12 13,9 C 12,2 C 88 % 1017,7 hPa 0,0 l/m 0 min 0 min 0,0 UV-I 0 W/m 0,0 km/h (0 Bft)
22.06.2014 02:14 13,9 C 12,2 C 88 % 1017,7 hPa 0,0 l/m 0 min 0 min 0,0 UV-I 0 W/m 0,0 km/h (0 Bft)
22.06.2014 02:16 13,8 C 11,7 C 89 % 1017,6 hPa 0,0 l/m 0 min 0 min 0,0 UV-I 0 W/m 8,4 km/h (2 Bft)
22.06.2014 02:18 13,7 C 11,7 C 89 % 1017,7 hPa 0,0 l/m 0 min 0 min 0,0 UV-I 0 W/m 2,1 km/h (1 Bft)
22.06.2014 02:20 13,8 C 11,7 C 89 % 1017,7 hPa 0,0 l/m 0 min 0 min 0,0 UV-I 0 W/m 4,2 km/h (1 Bft)
22.06.2014 02:22 13,8 C 11,7 C 90 % 1017,6 hPa 0,0 l/m 0 min 0 min 0,0 UV-I 0 W/m 0,0 km/h (0 Bft)
22.06.2014 02:24 13,8 C 12,2 C 90 % 1017,7 hPa 0,0 l/m 0 min 0 min 0,0 UV-I 0 W/m 10,5 km/h (2 Bft)
22.06.2014 02:26 13,8 C 12,2 C 90 % 1017,7 hPa 0,0 l/m 0 min 0 min 0,0 UV-I 0 W/m 8,4 km/h (2 Bft)
22.06.2014 02:28 13,8 C 12,2 C 90 % 1017,7 hPa 0,0 l/m 0 min 0 min 0,0 UV-I 0 W/m 2,1 km/h (1 Bft)
22.06.2014 02:30 13,8 C 12,2 C 90 % 1017,7 hPa 0,0 l/m 0 min 0 min 0,0 UV-I 0 W/m 6,3 km/h (2 Bft)
22.06.2014 02:32 13,8 C 12,2 C 91 % 1017,7 hPa 0,0 l/m 0 min 0 min 0,0 UV-I 0 W/m 6,3 km/h (2 Bft)
22.06.2014 02:34 13,9 C 12,2 C 91 % 1017,7 hPa 0,0 l/m 0 min 0 min 0,0 UV-I 0 W/m 6,3 km/h (2 Bft)
22.06.2014 02:36 13,9 C 12,2 C 91 % 1017,7 hPa 0,0 l/m 0 min 0 min 0,0 UV-I 0 W/m 6,3 km/h (2 Bft)
22.06.2014 02:38 14,0 C 12,2 C 91 % 1017,8 hPa 0,0 l/m 0 min 0 min 0,0 UV-I 0 W/m 6,3 km/h (2 Bft)
22.06.2014 02:40 14,0 C 12,2 C 91 % 1017,8 hPa 0,0 l/m 0 min 0 min 0,0 UV-I 0 W/m 0,0 km/h (0 Bft)
22.06.2014 02:42 14,1 C 12,2 C 91 % 1017,8 hPa 0,0 l/m 0 min 0 min 0,0 UV-I 0 W/m 0,0 km/h (0 Bft)
22.06.2014 02:44 14,1 C 12,2 C 91 % 1017,8 hPa 0,0 l/m 0 min 0 min 0,0 UV-I 0 W/m 0,0 km/h (0 Bft)
22.06.2014 02:46 14,0 C 12,2 C 91 % 1017,8 hPa 0,0 l/m 0 min 0 min 0,0 UV-I 0 W/m 0,0 km/h (0 Bft)
22.06.2014 02:48 13,9 C 12,2 C 91 % 1017,8 hPa 0,0 l/m 0 min 0 min 0,0 UV-I 0 W/m 2,1 km/h (1 Bft)
22.06.2014 02:50 13,9 C 12,2 C 91 % 1017,8 hPa 0,0 l/m 0 min 0 min 0,0 UV-I 0 W/m 0,0 km/h (0 Bft)
22.06.2014 02:52 13,8 C 11,7 C 91 % 1017,9 hPa 0,0 l/m 0 min 0 min 0,0 UV-I 0 W/m 0,0 km/h (0 Bft)
22.06.2014 02:54 13,7 C 11,7 C 91 % 1017,9 hPa 0,0 l/m 0 min 0 min 0,0 UV-I 0 W/m 0,0 km/h (0 Bft)
22.06.2014 02:56 13,7 C 11,7 C 91 % 1017,9 hPa 0,0 l/m 0 min 0 min 0,0 UV-I 0 W/m 2,1 km/h (1 Bft)
22.06.2014 02:58 13,6 C 11,7 C 91 % 1017,8 hPa 0,0 l/m 0 min 0 min 0,0 UV-I 0 W/m 0,0 km/h (0 Bft)
22.06.2014 03:00 13,6 C 11,7 C 91 % 1017,8 hPa 0,0 l/m 0 min 0 min 0,0 UV-I 0 W/m 0,0 km/h (0 Bft)
22.06.2014 03:02 13,5 C 11,7 C 91 % 1017,8 hPa 0,0 l/m 0 min 0 min 0,0 UV-I 0 W/m 0,0 km/h (0 Bft)
22.06.2014 03:04 13,4 C 11,7 C 92 % 1017,9 hPa 0,0 l/m 0 min 0 min 0,0 UV-I 0 W/m 0,0 km/h (0 Bft)
22.06.2014 03:06 13,4 C 11,7 C 92 % 1017,8 hPa 0,0 l/m 0 min 0 min 0,0 UV-I 0 W/m 0,0 km/h (0 Bft)
22.06.2014 03:08 13,3 C 11,7 C 92 % 1017,8 hPa 0,0 l/m 0 min 0 min 0,0 UV-I 0 W/m 0,0 km/h (0 Bft)
22.06.2014 03:10 13,3 C 11,7 C 92 % 1017,9 hPa 0,0 l/m 0 min 0 min 0,0 UV-I 0 W/m 0,0 km/h (0 Bft)
22.06.2014 03:12 13,3 C 11,1 C 92 % 1017,8 hPa 0,0 l/m 0 min 0 min 0,0 UV-I 0 W/m 0,0 km/h (0 Bft)
22.06.2014 03:14 13,2 C 11,1 C 92 % 1017,9 hPa 0,0 l/m 0 min 0 min 0,0 UV-I 0 W/m 0,0 km/h (0 Bft)
22.06.2014 03:16 13,2 C 11,1 C 92 % 1017,8 hPa 0,0 l/m 0 min 0 min 0,0 UV-I 0 W/m 0,0 km/h (0 Bft)
22.06.2014 03:18 13,2 C 11,1 C 93 % 1017,9 hPa 0,0 l/m 0 min 0 min 0,0 UV-I 0 W/m 0,0 km/h (0 Bft)
22.06.2014 03:20 13,2 C 11,1 C 93 % 1017,9 hPa 0,0 l/m 0 min 0 min 0,0 UV-I 0 W/m 0,0 km/h (0 Bft)
22.06.2014 03:22 13,1 C 11,1 C 93 % 1017,9 hPa 0,0 l/m 0 min 0 min 0,0 UV-I 0 W/m 0,0 km/h (0 Bft)
22.06.2014 03:24 13,1 C 11,1 C 93 % 1017,9 hPa 0,0 l/m 0 min 0 min 0,0 UV-I 0 W/m 0,0 km/h (0 Bft)
22.06.2014 03:26 13,0 C 11,1 C 93 % 1017,9 hPa 0,0 l/m 0 min 0 min 0,0 UV-I 0 W/m 0,0 km/h (0 Bft)
22.06.2014 03:28 12,9 C 11,1 C 93 % 1017,9 hPa 0,0 l/m 0 min 0 min 0,0 UV-I 0 W/m 0,0 km/h (0 Bft)
22.06.2014 03:30 12,9 C 11,1 C 93 % 1018,0 hPa 0,0 l/m 0 min 0 min 0,0 UV-I 0 W/m 0,0 km/h (0 Bft)
22.06.2014 03:32 12,9 C 11,1 C 93 % 1017,9 hPa 0,0 l/m 0 min 0 min 0,0 UV-I 0 W/m 0,0 km/h (0 Bft)
22.06.2014 03:34 12,9 C 11,1 C 93 % 1017,9 hPa 0,0 l/m 0 min 0 min 0,0 UV-I 0 W/m 0,0 km/h (0 Bft)
22.06.2014 03:36 12,9 C 11,1 C 94 % 1018,0 hPa 0,0 l/m 0 min 0 min 0,0 UV-I 0 W/m 0,0 km/h (0 Bft)
22.06.2014 03:38 12,9 C 11,1 C 94 % 1018,0 hPa 0,0 l/m 0 min 0 min 0,0 UV-I 0 W/m 0,0 km/h (0 Bft)
22.06.2014 03:40 12,8 C 11,1 C 94 % 1018,0 hPa 0,0 l/m 0 min 0 min 0,0 UV-I 0 W/m 2,1 km/h (1 Bft)
22.06.2014 03:42 12,8 C 11,1 C 94 % 1018,0 hPa 0,0 l/m 0 min 0 min 0,0 UV-I 0 W/m 0,0 km/h (0 Bft)
22.06.2014 03:44 12,8 C 11,1 C 94 % 1018,1 hPa 0,0 l/m 0 min 0 min 0,0 UV-I 0 W/m 0,0 km/h (0 Bft)
22.06.2014 03:46 12,7 C 11,1 C 94 % 1018,1 hPa 0,0 l/m 0 min 0 min 0,0 UV-I 0 W/m 0,0 km/h (0 Bft)
22.06.2014 03:48 12,7 C 11,1 C 94 % 1018,1 hPa 0,0 l/m 0 min 0 min 0,0 UV-I 0 W/m 0,0 km/h (0 Bft)
22.06.2014 03:50 12,7 C 11,1 C 94 % 1018,1 hPa 0,0 l/m 0 min 0 min 0,0 UV-I 0 W/m 0,0 km/h (0 Bft)
22.06.2014 03:52 12,7 C 11,1 C 94 % 1018,2 hPa 0,0 l/m 0 min 0 min 0,0 UV-I 0 W/m 0,0 km/h (0 Bft)
22.06.2014 03:54 12,7 C 11,1 C 94 % 1018,3 hPa 0,0 l/m 0 min 0 min 0,0 UV-I 0 W/m 0,0 km/h (0 Bft)
22.06.2014 03:56 12,7 C 11,1 C 94 % 1018,3 hPa 0,0 l/m 0 min 0 min 0,0 UV-I 0 W/m 2,1 km/h (1 Bft)
22.06.2014 03:58 12,8 C 11,1 C 94 % 1018,3 hPa 0,0 l/m 0 min 0 min 0,0 UV-I 0 W/m 0,0 km/h (0 Bft)
22.06.2014 04:00 12,7 C 11,1 C 94 % 1018,3 hPa 0,0 l/m 0 min 0 min 0,0 UV-I 0 W/m 0,0 km/h (0 Bft)
22.06.2014 04:02 12,8 C 11,1 C 94 % 1018,3 hPa 0,0 l/m 0 min 0 min 0,0 UV-I 0 W/m 0,0 km/h (0 Bft)
22.06.2014 04:07 12,7 C 11,1 C 95 % 1018,2 hPa 0,0 l/m 0 min 0 min 0,0 UV-I 0 W/m 0,0 km/h (0 Bft)
22.06.2014 04:08 12,7 C 11,1 C 95 % 1018,2 hPa 0,0 l/m 0 min 0 min 0,0 UV-I 0 W/m 0,0 km/h (0 Bft)
22.06.2014 04:10 12,7 C 11,1 C 95 % 1018,2 hPa 0,0 l/m 0 min 0 min 0,0 UV-I 0 W/m 0,0 km/h (0 Bft)
22.06.2014 04:12 12,7 C 11,1 C 95 % 1018,3 hPa 0,0 l/m 0 min 0 min 0,0 UV-I 0 W/m 0,0 km/h (0 Bft)
22.06.2014 04:14 12,6 C 11,1 C 95 % 1018,2 hPa 0,0 l/m 0 min 0 min 0,0 UV-I 0 W/m 0,0 km/h (0 Bft)
22.06.2014 04:16 12,6 C 11,1 C 95 % 1018,3 hPa 0,0 l/m 0 min 0 min 0,0 UV-I 0 W/m 0,0 km/h (0 Bft)
22.06.2014 04:18 12,6 C 10,6 C 95 % 1018,2 hPa 0,0 l/m 0 min 0 min 0,0 UV-I 0 W/m 0,0 km/h (0 Bft)
22.06.2014 04:20 12,5 C 10,6 C 95 % 1018,2 hPa 0,0 l/m 0 min 0 min 0,0 UV-I 0 W/m 0,0 km/h (0 Bft)
22.06.2014 04:22 12,5 C 10,6 C 95 % 1018,2 hPa 0,0 l/m 0 min 0 min 0,0 UV-I 0 W/m 0,0 km/h (0 Bft)
22.06.2014 04:24 12,5 C 10,6 C 95 % 1018,2 hPa 0,0 l/m 0 min 0 min 0,0 UV-I 0 W/m 0,0 km/h (0 Bft)
22.06.2014 04:26 12,4 C 10,6 C 95 % 1018,3 hPa 0,0 l/m 0 min 0 min 0,0 UV-I 0 W/m 0,0 km/h (0 Bft)
22.06.2014 04:28 12,4 C 10,6 C 95 % 1018,2 hPa 0,0 l/m 0 min 0 min 0,0 UV-I 0 W/m 0,0 km/h (0 Bft)
22.06.2014 04:30 12,4 C 10,6 C 95 % 1018,3 hPa 0,0 l/m 0 min 0 min 0,0 UV-I 0 W/m 0,0 km/h (0 Bft)
22.06.2014 04:32 12,3 C 10,6 C 95 % 1018,2 hPa 0,0 l/m 0 min 0 min 0,0 UV-I 0 W/m 0,0 km/h (0 Bft)
22.06.2014 04:34 12,3 C 10,6 C 95 % 1018,2 hPa 0,0 l/m 0 min 0 min 0,0 UV-I 0 W/m 0,0 km/h (0 Bft)
22.06.2014 04:36 12,3 C 10,6 C 95 % 1018,3 hPa 0,0 l/m 0 min 0 min 0,0 UV-I 0 W/m 0,0 km/h (0 Bft)
22.06.2014 04:38 12,2 C 10,6 C 95 % 1018,3 hPa 0,0 l/m 0 min 0 min 0,0 UV-I 0 W/m 0,0 km/h (0 Bft)
22.06.2014 04:40 12,2 C 10,6 C 95 % 1018,3 hPa 0,0 l/m 0 min 0 min 0,0 UV-I 0 W/m 0,0 km/h (0 Bft)
22.06.2014 04:42 12,2 C 10,6 C 95 % 1018,3 hPa 0,0 l/m 0 min 0 min 0,0 UV-I 0 W/m 0,0 km/h (0 Bft)
22.06.2014 04:44 12,1 C 10,6 C 95 % 1018,4 hPa 0,0 l/m 0 min 0 min 0,0 UV-I 0 W/m 0,0 km/h (0 Bft)
22.06.2014 04:46 12,1 C 10,6 C 95 % 1018,4 hPa 0,0 l/m 0 min 0 min 0,0 UV-I 0 W/m 0,0 km/h (0 Bft)
22.06.2014 04:48 12,1 C 10,6 C 95 % 1018,4 hPa 0,0 l/m 0 min 0 min 0,0 UV-I 0 W/m 0,0 km/h (0 Bft)
22.06.2014 04:50 12,0 C 10,6 C 95 % 1018,4 hPa 0,0 l/m 0 min 0 min 0,0 UV-I 0 W/m 0,0 km/h (0 Bft)
22.06.2014 04:52 12,0 C 10,6 C 96 % 1018,4 hPa 0,0 l/m 0 min 0 min 0,0 UV-I 0 W/m 0,0 km/h (0 Bft)
22.06.2014 04:54 12,1 C 10,6 C 96 % 1018,4 hPa 0,0 l/m 0 min 0 min 0,0 UV-I 0 W/m 0,0 km/h (0 Bft)
22.06.2014 04:56 12,1 C 10,6 C 96 % 1018,4 hPa 0,0 l/m 0 min 0 min 0,0 UV-I 0 W/m 0,0 km/h (0 Bft)
22.06.2014 04:58 12,1 C 10,6 C 96 % 1018,4 hPa 0,0 l/m 0 min 0 min 0,0 UV-I 0 W/m 0,0 km/h (0 Bft)
22.06.2014 05:00 12,2 C 10,6 C 96 % 1018,5 hPa 0,0 l/m 0 min 0 min 0,0 UV-I 0 W/m 0,0 km/h (0 Bft)
22.06.2014 05:02 12,2 C 11,1 C 96 % 1018,4 hPa 0,0 l/m 0 min 0 min 0,0 UV-I 0 W/m 0,0 km/h (0 Bft)
22.06.2014 05:04 12,2 C 11,1 C 96 % 1018,4 hPa 0,0 l/m 0 min 0 min 0,0 UV-I 0 W/m 0,0 km/h (0 Bft)
22.06.2014 05:06 12,2 C 11,1 C 96 % 1018,4 hPa 0,0 l/m 0 min 0 min 0,0 UV-I 0 W/m 0,0 km/h (0 Bft)
22.06.2014 05:08 12,2 C 11,1 C 96 % 1018,4 hPa 0,0 l/m 0 min 0 min 0,0 UV-I 0 W/m 0,0 km/h (0 Bft)
22.06.2014 05:10 12,2 C 11,1 C 96 % 1018,4 hPa 0,0 l/m 0 min 0 min 0,0 UV-I 0 W/m 0,0 km/h (0 Bft)
22.06.2014 05:12 12,3 C 11,1 C 96 % 1018,4 hPa 0,0 l/m 0 min 0 min 0,0 UV-I 0 W/m 2,1 km/h (1 Bft)
22.06.2014 05:14 12,3 C 11,1 C 96 % 1018,5 hPa 0,0 l/m 0 min 0 min 0,0 UV-I 0 W/m 0,0 km/h (0 Bft)
22.06.2014 05:16 12,3 C 11,1 C 96 % 1018,5 hPa 0,0 l/m 0 min 0 min 0,0 UV-I 0 W/m 0,0 km/h (0 Bft)
22.06.2014 05:18 12,3 C 11,1 C 96 % 1018,5 hPa 0,0 l/m 0 min 0 min 0,0 UV-I 0 W/m 0,0 km/h (0 Bft)
22.06.2014 05:20 12,3 C 11,1 C 96 % 1018,5 hPa 0,0 l/m 0 min 0 min 0,0 UV-I 0 W/m 0,0 km/h (0 Bft)
22.06.2014 05:22 12,4 C 11,1 C 96 % 1018,5 hPa 0,0 l/m 0 min 0 min 0,0 UV-I 0 W/m 0,0 km/h (0 Bft)
22.06.2014 05:24 12,4 C 11,7 C 96 % 1018,6 hPa 0,0 l/m 0 min 0 min 0,0 UV-I 6 W/m 0,0 km/h (0 Bft)
22.06.2014 05:26 12,4 C 11,7 C 96 % 1018,5 hPa 0,0 l/m 0 min 0 min 0,0 UV-I 6 W/m 0,0 km/h (0 Bft)
22.06.2014 05:28 12,4 C 11,7 C 96 % 1018,5 hPa 0,0 l/m 0 min 0 min 0,0 UV-I 6 W/m 0,0 km/h (0 Bft)
22.06.2014 05:30 12,4 C 11,7 C 96 % 1018,5 hPa 0,0 l/m 0 min 0 min 0,0 UV-I 8 W/m 0,0 km/h (0 Bft)
22.06.2014 05:32 12,4 C 11,7 C 96 % 1018,5 hPa 0,0 l/m 0 min 0 min 0,0 UV-I 8 W/m 0,0 km/h (0 Bft)
22.06.2014 05:34 12,4 C 11,7 C 96 % 1018,6 hPa 0,0 l/m 0 min 0 min 0,0 UV-I 8 W/m 0,0 km/h (0 Bft)
22.06.2014 05:36 12,5 C 11,7 C 96 % 1018,6 hPa 0,0 l/m 0 min 0 min 0,0 UV-I 10 W/m 0,0 km/h (0 Bft)
22.06.2014 05:38 12,5 C 11,7 C 96 % 1018,6 hPa 0,0 l/m 0 min 0 min 0,0 UV-I 10 W/m 0,0 km/h (0 Bft)
22.06.2014 05:40 12,6 C 11,7 C 96 % 1018,6 hPa 0,0 l/m 0 min 0 min 0,0 UV-I 10 W/m 0,0 km/h (0 Bft)
22.06.2014 05:42 12,6 C 11,7 C 96 % 1018,6 hPa 0,0 l/m 0 min 0 min 0,0 UV-I 10 W/m 0,0 km/h (0 Bft)
22.06.2014 05:44 12,6 C 11,7 C 95 % 1018,6 hPa 0,0 l/m 0 min 0 min 0,0 UV-I 13 W/m 0,0 km/h (0 Bft)
22.06.2014 05:46 12,6 C 11,7 C 95 % 1018,6 hPa 0,0 l/m 0 min 0 min 0,0 UV-I 13 W/m 2,1 km/h (1 Bft)
22.06.2014 05:48 12,6 C 11,7 C 95 % 1018,6 hPa 0,0 l/m 0 min 0 min 0,0 UV-I 14 W/m 0,0 km/h (0 Bft)
22.06.2014 05:50 12,6 C 11,7 C 95 % 1018,6 hPa 0,0 l/m 0 min 0 min 0,0 UV-I 14 W/m 0,0 km/h (0 Bft)
22.06.2014 05:52 12,7 C 11,7 C 95 % 1018,6 hPa 0,0 l/m 0 min 0 min 0,0 UV-I 16 W/m 0,0 km/h (0 Bft)
22.06.2014 05:54 12,7 C 11,7 C 95 % 1018,7 hPa 0,0 l/m 0 min 0 min 0,0 UV-I 16 W/m 2,1 km/h (1 Bft)
22.06.2014 05:56 12,7 C 11,7 C 95 % 1018,7 hPa 0,0 l/m 0 min 0 min 0,0 UV-I 18 W/m 0,0 km/h (0 Bft)
22.06.2014 05:58 12,7 C 11,7 C 95 % 1018,7 hPa 0,0 l/m 0 min 0 min 0,0 UV-I 18 W/m 2,1 km/h (1 Bft)
22.06.2014 06:00 12,8 C 11,7 C 95 % 1018,7 hPa 0,0 l/m 0 min 0 min 0,0 UV-I 21 W/m 2,1 km/h (1 Bft)
22.06.2014 06:02 12,8 C 12,2 C 95 % 1018,8 hPa 0,0 l/m 0 min 0 min 0,0 UV-I 22 W/m 8,4 km/h (2 Bft)
22.06.2014 06:06 12,9 C 12,2 C 94 % 1018,8 hPa 0,0 l/m 0 min 0 min 0,0 UV-I 26 W/m 4,2 km/h (1 Bft)
22.06.2014 06:08 12,9 C 12,2 C 94 % 1018,8 hPa 0,0 l/m 0 min 0 min 0,0 UV-I 29 W/m 10,5 km/h (2 Bft)
22.06.2014 06:10 12,9 C 12,2 C 94 % 1018,8 hPa 0,0 l/m 0 min 0 min 0,0 UV-I 32 W/m 10,5 km/h (2 Bft)
22.06.2014 06:12 13,0 C 12,2 C 94 % 1018,9 hPa 0,0 l/m 0 min 0 min 0,0 UV-I 34 W/m 6,3 km/h (2 Bft)
22.06.2014 06:14 13,0 C 12,2 C 94 % 1018,9 hPa 0,0 l/m 0 min 0 min 0,0 UV-I 37 W/m 6,3 km/h (2 Bft)
22.06.2014 06:16 13,0 C 12,2 C 93 % 1018,9 hPa 0,0 l/m 0 min 0 min 0,0 UV-I 43 W/m 4,2 km/h (1 Bft)
22.06.2014 06:18 13,0 C 12,2 C 93 % 1018,9 hPa 0,0 l/m 0 min 0 min 0,0 UV-I 46 W/m 6,3 km/h (2 Bft)
22.06.2014 06:20 13,1 C 12,2 C 93 % 1018,9 hPa 0,0 l/m 0 min 0 min 0,0 UV-I 46 W/m 10,5 km/h (2 Bft)
22.06.2014 06:22 13,1 C 12,2 C 93 % 1018,9 hPa 0,0 l/m 0 min 0 min 0,0 UV-I 53 W/m 10,5 km/h (2 Bft)
22.06.2014 06:24 13,1 C 12,2 C 93 % 1019,0 hPa 0,0 l/m 0 min 0 min 0,0 UV-I 69 W/m 8,4 km/h (2 Bft)
22.06.2014 06:26 13,1 C 12,2 C 93 % 1019,0 hPa 0,0 l/m 0 min 0 min 0,0 UV-I 71 W/m 8,4 km/h (2 Bft)
22.06.2014 06:28 13,1 C 12,2 C 93 % 1019,0 hPa 0,0 l/m 0 min 0 min 0,0 UV-I 67 W/m 6,3 km/h (2 Bft)
22.06.2014 06:30 13,1 C 12,2 C 92 % 1019,0 hPa 0,0 l/m 0 min 0 min 0,0 UV-I 79 W/m 6,3 km/h (2 Bft)
22.06.2014 06:32 13,1 C 12,2 C 92 % 1019,1 hPa 0,0 l/m 2 min 0 min 0,0 UV-I 93 W/m 8,4 km/h (2 Bft)
22.06.2014 06:34 13,1 C 12,2 C 92 % 1019,1 hPa 0,0 l/m 0 min 0 min 0,0 UV-I 80 W/m 10,5 km/h (2 Bft)
22.06.2014 06:36 13,1 C 12,2 C 92 % 1019,1 hPa 0,0 l/m 2 min 0 min 0,0 UV-I 113 W/m 4,2 km/h (1 Bft)
22.06.2014 06:38 13,1 C 12,2 C 92 % 1019,1 hPa 0,0 l/m 2 min 0 min 0,0 UV-I 131 W/m 12,6 km/h (3 Bft)
22.06.2014 06:40 13,1 C 12,2 C 92 % 1019,1 hPa 0,0 l/m 2 min 0 min 0,0 UV-I 138 W/m 6,3 km/h (2 Bft)
22.06.2014 06:42 13,1 C 12,2 C 92 % 1019,1 hPa 0,0 l/m 2 min 0 min 0,0 UV-I 168 W/m 8,4 km/h (2 Bft)
22.06.2014 06:44 13,1 C 12,2 C 92 % 1019,2 hPa 0,0 l/m 2 min 0 min 0,0 UV-I 176 W/m 6,3 km/h (2 Bft)
22.06.2014 06:46 13,1 C 12,2 C 92 % 1019,2 hPa 0,0 l/m 2 min 0 min 0,0 UV-I 186 W/m 2,1 km/h (1 Bft)
22.06.2014 06:48 13,1 C 12,2 C 92 % 1019,2 hPa 0,0 l/m 2 min 0 min 0,0 UV-I 194 W/m 6,3 km/h (2 Bft)
22.06.2014 06:50 13,1 C 12,2 C 92 % 1019,2 hPa 0,0 l/m 2 min 0 min 0,0 UV-I 200 W/m 8,4 km/h (2 Bft)
22.06.2014 06:52 13,2 C 12,2 C 92 % 1019,2 hPa 0,0 l/m 2 min 0 min 0,0 UV-I 208 W/m 8,4 km/h (2 Bft)
22.06.2014 06:54 13,2 C 12,2 C 91 % 1019,2 hPa 0,0 l/m 2 min 0 min 0,0 UV-I 213 W/m 12,6 km/h (3 Bft)
22.06.2014 06:56 13,2 C 12,2 C 92 % 1019,2 hPa 0,0 l/m 2 min 0 min 0,0 UV-I 218 W/m 8,4 km/h (2 Bft)
22.06.2014 06:58 13,3 C 12,2 C 91 % 1019,3 hPa 0,0 l/m 2 min 0 min 0,0 UV-I 222 W/m 4,2 km/h (1 Bft)
22.06.2014 07:00 13,3 C 12,2 C 91 % 1019,3 hPa 0,0 l/m 2 min 0 min 0,0 UV-I 230 W/m 14,6 km/h (3 Bft)
22.06.2014 07:02 13,3 C 12,2 C 91 % 1019,3 hPa 0,0 l/m 2 min 0 min 0,0 UV-I 237 W/m 10,5 km/h (2 Bft)
22.06.2014 07:04 13,3 C 12,2 C 91 % 1019,3 hPa 0,0 l/m 2 min 0 min 0,0 UV-I 245 W/m 12,6 km/h (3 Bft)
22.06.2014 07:06 13,3 C 12,2 C 90 % 1019,4 hPa 0,0 l/m 2 min 0 min 0,0 UV-I 251 W/m 8,4 km/h (2 Bft)
22.06.2014 07:08 13,4 C 12,2 C 90 % 1019,4 hPa 0,0 l/m 2 min 0 min 0,0 UV-I 259 W/m 14,6 km/h (3 Bft)
22.06.2014 07:10 13,4 C 12,2 C 90 % 1019,4 hPa 0,0 l/m 2 min 0 min 0,0 UV-I 263 W/m 12,6 km/h (3 Bft)
22.06.2014 07:12 13,4 C 12,2 C 90 % 1019,4 hPa 0,0 l/m 2 min 0 min 0,0 UV-I 271 W/m 14,6 km/h (3 Bft)
22.06.2014 07:14 13,4 C 12,2 C 90 % 1019,5 hPa 0,0 l/m 2 min 0 min 0,0 UV-I 275 W/m 16,7 km/h (3 Bft)
22.06.2014 07:16 13,5 C 12,2 C 90 % 1019,4 hPa 0,0 l/m 2 min 0 min 0,0 UV-I 279 W/m 12,6 km/h (3 Bft)
22.06.2014 07:18 13,6 C 12,2 C 90 % 1019,4 hPa 0,0 l/m 2 min 0 min 0,0 UV-I 288 W/m 16,7 km/h (3 Bft)
22.06.2014 07:20 13,6 C 12,2 C 89 % 1019,5 hPa 0,0 l/m 2 min 0 min 0,0 UV-I 297 W/m 12,6 km/h (3 Bft)
22.06.2014 07:22 13,6 C 12,2 C 89 % 1019,5 hPa 0,0 l/m 2 min 0 min 0,0 UV-I 299 W/m 12,6 km/h (3 Bft)
22.06.2014 07:24 13,6 C 12,2 C 89 % 1019,4 hPa 0,0 l/m 2 min 0 min 0,0 UV-I 305 W/m 14,6 km/h (3 Bft)
22.06.2014 07:26 13,7 C 12,2 C 89 % 1019,5 hPa 0,0 l/m 2 min 0 min 0,0 UV-I 312 W/m 6,3 km/h (2 Bft)
22.06.2014 07:28 13,7 C 12,2 C 89 % 1019,4 hPa 0,0 l/m 2 min 0 min 0,0 UV-I 315 W/m 10,5 km/h (2 Bft)
22.06.2014 07:30 13,7 C 12,2 C 89 % 1019,5 hPa 0,0 l/m 2 min 0 min 0,0 UV-I 321 W/m 14,6 km/h (3 Bft)
22.06.2014 07:32 13,7 C 12,2 C 89 % 1019,5 hPa 0,0 l/m 2 min 0 min 0,0 UV-I 328 W/m 12,6 km/h (3 Bft)
22.06.2014 07:34 13,7 C 12,8 C 89 % 1019,5 hPa 0,0 l/m 2 min 0 min 0,0 UV-I 331 W/m 14,6 km/h (3 Bft)
22.06.2014 07:36 13,8 C 12,8 C 89 % 1019,4 hPa 0,0 l/m 2 min 0 min 0,0 UV-I 338 W/m 14,6 km/h (3 Bft)
22.06.2014 07:38 13,8 C 12,8 C 89 % 1019,5 hPa 0,0 l/m 2 min 0 min 0,0 UV-I 347 W/m 10,5 km/h (2 Bft)
22.06.2014 07:40 13,8 C 12,8 C 89 % 1019,5 hPa 0,0 l/m 2 min 0 min 0,0 UV-I 354 W/m 16,7 km/h (3 Bft)
22.06.2014 07:42 13,8 C 12,8 C 88 % 1019,5 hPa 0,0 l/m 2 min 0 min 0,0 UV-I 355 W/m 14,6 km/h (3 Bft)
22.06.2014 07:44 13,9 C 12,8 C 88 % 1019,5 hPa 0,0 l/m 2 min 0 min 0,0 UV-I 366 W/m 8,4 km/h (2 Bft)
22.06.2014 07:46 13,9 C 12,8 C 88 % 1019,5 hPa 0,0 l/m 2 min 0 min 0,0 UV-I 371 W/m 8,4 km/h (2 Bft)
22.06.2014 07:48 13,9 C 12,8 C 88 % 1019,5 hPa 0,0 l/m 2 min 0 min 0,0 UV-I 378 W/m 12,6 km/h (3 Bft)
22.06.2014 07:50 14,0 C 12,8 C 88 % 1019,6 hPa 0,0 l/m 2 min 0 min 0,0 UV-I 384 W/m 12,6 km/h (3 Bft)
22.06.2014 07:52 14,1 C 12,8 C 88 % 1019,6 hPa 0,0 l/m 2 min 0 min 0,0 UV-I 390 W/m 16,7 km/h (3 Bft)
22.06.2014 07:54 14,2 C 12,8 C 87 % 1019,6 hPa 0,0 l/m 2 min 0 min 0,0 UV-I 394 W/m 12,6 km/h (3 Bft)
22.06.2014 07:56 14,2 C 12,8 C 87 % 1019,6 hPa 0,0 l/m 2 min 0 min 0,0 UV-I 405 W/m 16,7 km/h (3 Bft)
22.06.2014 07:58 14,2 C 12,8 C 87 % 1019,6 hPa 0,0 l/m 2 min 0 min 0,0 UV-I 408 W/m 16,7 km/h (3 Bft)
22.06.2014 08:00 14,2 C 12,8 C 86 % 1019,6 hPa 0,0 l/m 2 min 0 min 0,0 UV-I 413 W/m 16,7 km/h (3 Bft)
22.06.2014 08:02 14,2 C 12,8 C 87 % 1019,7 hPa 0,0 l/m 2 min 0 min 0,0 UV-I 421 W/m 20,9 km/h (4 Bft)
22.06.2014 08:04 14,2 C 12,8 C 86 % 1019,8 hPa 0,0 l/m 2 min 0 min 0,0 UV-I 424 W/m 18,8 km/h (3 Bft)
22.06.2014 08:06 14,2 C 12,8 C 85 % 1019,8 hPa 0,0 l/m 2 min 0 min 0,0 UV-I 429 W/m 14,6 km/h (3 Bft)
22.06.2014 08:08 14,2 C 12,8 C 85 % 1019,8 hPa 0,0 l/m 2 min 0 min 0,0 UV-I 437 W/m 16,7 km/h (3 Bft)
22.06.2014 08:10 14,3 C 13,3 C 85 % 1019,9 hPa 0,0 l/m 2 min 0 min 0,0 UV-I 438 W/m 12,6 km/h (3 Bft)
22.06.2014 08:12 14,4 C 13,3 C 85 % 1019,8 hPa 0,0 l/m 2 min 0 min 0,0 UV-I 445 W/m 14,6 km/h (3 Bft)
22.06.2014 08:14 14,5 C 13,3 C 85 % 1019,8 hPa 0,0 l/m 2 min 0 min 0,0 UV-I 455 W/m 16,7 km/h (3 Bft)
22.06.2014 08:16 14,5 C 13,3 C 84 % 1019,9 hPa 0,0 l/m 2 min 0 min 0,0 UV-I 461 W/m 14,6 km/h (3 Bft)
22.06.2014 08:18 14,6 C 13,3 C 84 % 1019,9 hPa 0,0 l/m 2 min 0 min 0,0 UV-I 459 W/m 16,7 km/h (3 Bft)
22.06.2014 08:20 14,6 C 13,3 C 84 % 1019,9 hPa 0,0 l/m 2 min 0 min 0,0 UV-I 469 W/m 14,6 km/h (3 Bft)
22.06.2014 08:22 14,7 C 13,3 C 84 % 1019,9 hPa 0,0 l/m 2 min 0 min 0,0 UV-I 475 W/m 16,7 km/h (3 Bft)
22.06.2014 08:24 14,8 C 13,3 C 83 % 1019,9 hPa 0,0 l/m 2 min 0 min 0,0 UV-I 481 W/m 18,8 km/h (3 Bft)
22.06.2014 08:26 14,8 C 13,3 C 83 % 1019,9 hPa 0,0 l/m 2 min 0 min 0,5 UV-I 489 W/m 14,6 km/h (3 Bft)
22.06.2014 08:28 14,9 C 13,3 C 83 % 1020,0 hPa 0,0 l/m 2 min 0 min 0,5 UV-I 497 W/m 8,4 km/h (2 Bft)
22.06.2014 08:30 15,1 C 13,9 C 83 % 1020,0 hPa 0,0 l/m 2 min 0 min 0,5 UV-I 499 W/m 12,6 km/h (3 Bft)
22.06.2014 08:32 15,1 C 13,9 C 81 % 1020,0 hPa 0,0 l/m 2 min 0 min 0,5 UV-I 507 W/m 14,6 km/h (3 Bft)
22.06.2014 08:34 15,2 C 13,9 C 81 % 1020,1 hPa 0,0 l/m 2 min 0 min 0,6 UV-I 509 W/m 16,7 km/h (3 Bft)
22.06.2014 08:36 15,1 C 13,9 C 81 % 1020,0 hPa 0,0 l/m 2 min 0 min 0,6 UV-I 518 W/m 14,6 km/h (3 Bft)
22.06.2014 08:38 15,1 C 13,9 C 81 % 1020,0 hPa 0,0 l/m 2 min 0 min 0,6 UV-I 522 W/m 16,7 km/h (3 Bft)
22.06.2014 08:40 15,2 C 13,9 C 81 % 1020,0 hPa 0,0 l/m 2 min 0 min 0,7 UV-I 526 W/m 10,5 km/h (2 Bft)
22.06.2014 08:42 15,3 C 13,9 C 81 % 1020,0 hPa 0,0 l/m 2 min 0 min 0,7 UV-I 534 W/m 10,5 km/h (2 Bft)
22.06.2014 08:44 15,4 C 13,9 C 81 % 1020,0 hPa 0,0 l/m 2 min 0 min 0,7 UV-I 539 W/m 16,7 km/h (3 Bft)
22.06.2014 08:46 15,7 C 13,9 C 81 % 1020,0 hPa 0,0 l/m 2 min 0 min 0,8 UV-I 539 W/m 12,6 km/h (3 Bft)
22.06.2014 08:48 15,7 C 13,9 C 79 % 1020,0 hPa 0,0 l/m 2 min 0 min 0,8 UV-I 552 W/m 10,5 km/h (2 Bft)
22.06.2014 08:50 15,7 C 13,9 C 79 % 1020,0 hPa 0,0 l/m 2 min 0 min 0,8 UV-I 558 W/m 8,4 km/h (2 Bft)
22.06.2014 08:52 15,8 C 13,9 C 79 % 1020,0 hPa 0,0 l/m 2 min 0 min 0,9 UV-I 560 W/m 8,4 km/h (2 Bft)
22.06.2014 08:54 15,8 C 14,4 C 79 % 1020,0 hPa 0,0 l/m 2 min 0 min 0,9 UV-I 568 W/m 6,3 km/h (2 Bft)
22.06.2014 08:56 15,8 C 13,9 C 79 % 1020,0 hPa 0,0 l/m 2 min 0 min 0,9 UV-I 570 W/m 10,5 km/h (2 Bft)
22.06.2014 08:58 15,9 C 14,4 C 79 % 1020,1 hPa 0,0 l/m 2 min 0 min 1,0 UV-I 574 W/m 10,5 km/h (2 Bft)
22.06.2014 09:00 15,9 C 14,4 C 78 % 1020,1 hPa 0,0 l/m 2 min 0 min 1,0 UV-I 580 W/m 10,5 km/h (2 Bft)
22.06.2014 09:02 15,9 C 14,4 C 77 % 1020,1 hPa 0,0 l/m 2 min 0 min 1,0 UV-I 586 W/m 10,5 km/h (2 Bft)
22.06.2014 09:04 16,0 C 14,4 C 77 % 1020,1 hPa 0,0 l/m 2 min 0 min 1,1 UV-I 584 W/m 8,4 km/h (2 Bft)
22.06.2014 09:06 16,0 C 14,4 C 77 % 1020,1 hPa 0,0 l/m 2 min 0 min 1,1 UV-I 605 W/m 8,4 km/h (2 Bft)
22.06.2014 09:08 16,1 C 14,4 C 77 % 1020,1 hPa 0,0 l/m 2 min 0 min 1,2 UV-I 605 W/m 0,0 km/h (0 Bft)
22.06.2014 09:10 16,2 C 14,4 C 77 % 1020,1 hPa 0,0 l/m 2 min 0 min 1,2 UV-I 613 W/m 0,0 km/h (0 Bft)
22.06.2014 09:12 16,3 C 14,4 C 76 % 1020,1 hPa 0,0 l/m 2 min 0 min 1,3 UV-I 531 W/m 10,5 km/h (2 Bft)
22.06.2014 09:14 16,3 C 14,4 C 76 % 1020,3 hPa 0,0 l/m 2 min 0 min 1,3 UV-I 629 W/m 14,6 km/h (3 Bft)
22.06.2014 09:16 16,3 C 15,0 C 75 % 1020,2 hPa 0,0 l/m 2 min 0 min 1,3 UV-I 641 W/m 18,8 km/h (3 Bft)
22.06.2014 09:18 16,4 C 15,0 C 76 % 1020,3 hPa 0,0 l/m 2 min 0 min 1,4 UV-I 649 W/m 16,7 km/h (3 Bft)
22.06.2014 09:20 16,5 C 15,0 C 76 % 1020,3 hPa 0,0 l/m 2 min 0 min 1,4 UV-I 661 W/m 12,6 km/h (3 Bft)
22.06.2014 09:22 16,6 C 15,6 C 76 % 1020,3 hPa 0,0 l/m 2 min 0 min 1,4 UV-I 661 W/m 18,8 km/h (3 Bft)
22.06.2014 09:24 16,6 C 15,6 C 76 % 1020,3 hPa 0,0 l/m 2 min 0 min 1,4 UV-I 667 W/m 10,5 km/h (2 Bft)
22.06.2014 09:26 16,7 C 15,6 C 75 % 1020,4 hPa 0,0 l/m 2 min 0 min 1,5 UV-I 693 W/m 10,5 km/h (2 Bft)
22.06.2014 09:28 16,9 C 16,1 C 75 % 1020,3 hPa 0,0 l/m 2 min 0 min 1,6 UV-I 707 W/m 14,6 km/h (3 Bft)
22.06.2014 09:30 16,8 C 15,6 C 75 % 1020,4 hPa 0,0 l/m 2 min 0 min 1,6 UV-I 710 W/m 12,6 km/h (3 Bft)
22.06.2014 09:32 16,6 C 15,6 C 75 % 1020,3 hPa 0,0 l/m 2 min 0 min 1,7 UV-I 720 W/m 8,4 km/h (2 Bft)
22.06.2014 09:34 16,6 C 16,1 C 76 % 1020,4 hPa 0,0 l/m 2 min 0 min 1,7 UV-I 750 W/m 10,5 km/h (2 Bft)
22.06.2014 09:36 16,7 C 16,1 C 76 % 1020,3 hPa 0,0 l/m 2 min 0 min 1,7 UV-I 764 W/m 8,4 km/h (2 Bft)
22.06.2014 09:38 16,8 C 16,1 C 75 % 1020,3 hPa 0,0 l/m 2 min 0 min 1,8 UV-I 795 W/m 10,5 km/h (2 Bft)
22.06.2014 09:40 17,2 C 16,7 C 76 % 1020,3 hPa 0,0 l/m 2 min 0 min 1,9 UV-I 805 W/m 10,5 km/h (2 Bft)
22.06.2014 09:42 17,8 C 16,7 C 77 % 1020,3 hPa 0,0 l/m 2 min 0 min 1,9 UV-I 814 W/m 10,5 km/h (2 Bft)
22.06.2014 09:44 17,8 C 16,7 C 72 % 1020,3 hPa 0,0 l/m 2 min 0 min 2,0 UV-I 821 W/m 14,6 km/h (3 Bft)
22.06.2014 09:46 17,8 C 16,7 C 72 % 1020,4 hPa 0,0 l/m 2 min 0 min 1,8 UV-I 819 W/m 12,6 km/h (3 Bft)
22.06.2014 09:48 17,9 C 16,7 C 73 % 1020,4 hPa 0,0 l/m 0 min 0 min 1,8 UV-I 206 W/m 8,4 km/h (2 Bft)
22.06.2014 09:50 18,1 C 17,2 C 73 % 1020,4 hPa 0,0 l/m 2 min 0 min 2,0 UV-I 829 W/m 6,3 km/h (2 Bft)
22.06.2014 09:52 18,1 C 17,2 C 70 % 1020,5 hPa 0,0 l/m 2 min 0 min 1,8 UV-I 853 W/m 10,5 km/h (2 Bft)
22.06.2014 09:54 18,1 C 17,2 C 70 % 1020,4 hPa 0,0 l/m 2 min 0 min 1,1 UV-I 402 W/m 16,7 km/h (3 Bft)
22.06.2014 09:56 18,1 C 17,2 C 71 % 1020,5 hPa 0,0 l/m 2 min 0 min 2,1 UV-I 873 W/m 14,6 km/h (3 Bft)
22.06.2014 09:58 17,9 C 17,2 C 70 % 1020,5 hPa 0,0 l/m 2 min 0 min 1,9 UV-I 790 W/m 14,6 km/h (3 Bft)
22.06.2014 10:00 17,7 C 17,2 C 70 % 1020,5 hPa 0,0 l/m 0 min 0 min 1,0 UV-I 243 W/m 14,6 km/h (3 Bft)
22.06.2014 10:02 17,3 C 16,7 C 70 % 1020,4 hPa 0,0 l/m 0 min 0 min 1,0 UV-I 243 W/m 14,6 km/h (3 Bft)
22.06.2014 10:04 17,2 C 17,2 C 71 % 1020,5 hPa 0,0 l/m 2 min 0 min 2,2 UV-I 889 W/m 14,6 km/h (3 Bft)
22.06.2014 10:06 17,2 C 17,8 C 71 % 1020,4 hPa 0,0 l/m 2 min 0 min 1,8 UV-I 889 W/m 12,6 km/h (3 Bft)
22.06.2014 10:08 17,2 C 18,3 C 71 % 1020,5 hPa 0,0 l/m 2 min 0 min 1,6 UV-I 877 W/m 8,4 km/h (2 Bft)
22.06.2014 10:10 17,3 C 18,9 C 71 % 1020,5 hPa 0,0 l/m 2 min 0 min 2,4 UV-I 856 W/m 10,5 km/h (2 Bft)
22.06.2014 10:12 17,8 C 18,9 C 71 % 1020,4 hPa 0,0 l/m 2 min 0 min 2,5 UV-I 877 W/m 14,6 km/h (3 Bft)
22.06.2014 10:14 18,1 C 18,9 C 71 % 1020,4 hPa 0,0 l/m 2 min 0 min 2,5 UV-I 865 W/m 12,6 km/h (3 Bft)
22.06.2014 10:16 18,2 C 19,4 C 72 % 1020,4 hPa 0,0 l/m 2 min 0 min 2,1 UV-I 880 W/m 8,4 km/h (2 Bft)
22.06.2014 10:18 18,4 C 19,4 C 71 % 1020,5 hPa 0,0 l/m 2 min 0 min 2,7 UV-I 883 W/m 14,6 km/h (3 Bft)
22.06.2014 10:20 18,4 C 20,0 C 69 % 1020,5 hPa 0,0 l/m 2 min 0 min 2,7 UV-I 915 W/m 10,5 km/h (2 Bft)
22.06.2014 10:22 18,5 C 21,1 C 69 % 1020,5 hPa 0,0 l/m 2 min 0 min 2,7 UV-I 936 W/m 14,6 km/h (3 Bft)
22.06.2014 10:24 18,7 C 21,7 C 70 % 1020,4 hPa 0,0 l/m 2 min 0 min 2,2 UV-I 936 W/m 14,6 km/h (3 Bft)
22.06.2014 10:26 18,8 C 20,6 C 69 % 1020,5 hPa 0,0 l/m 2 min 0 min 2,8 UV-I 906 W/m 10,5 km/h (2 Bft)
22.06.2014 10:28 18,8 C 20,0 C 68 % 1020,5 hPa 0,0 l/m 2 min 0 min 1,7 UV-I 952 W/m 12,6 km/h (3 Bft)
22.06.2014 10:30 18,4 C 18,9 C 67 % 1020,5 hPa 0,0 l/m 0 min 0 min 1,1 UV-I 179 W/m 12,6 km/h (3 Bft)
22.06.2014 10:32 17,9 C 17,8 C 69 % 1020,5 hPa 0,0 l/m 0 min 0 min 1,2 UV-I 179 W/m 10,5 km/h (2 Bft)
22.06.2014 10:34 17,4 C 17,8 C 71 % 1020,6 hPa 0,0 l/m 2 min 0 min 3,0 UV-I 928 W/m 12,6 km/h (3 Bft)
22.06.2014 10:36 17,5 C 18,3 C 72 % 1020,6 hPa 0,0 l/m 2 min 0 min 3,1 UV-I 963 W/m 12,6 km/h (3 Bft)
22.06.2014 10:38 17,6 C 19,4 C 71 % 1020,6 hPa 0,0 l/m 2 min 0 min 1,5 UV-I 995 W/m 12,6 km/h (3 Bft)
22.06.2014 10:40 17,6 C 19,4 C 71 % 1020,6 hPa 0,0 l/m 2 min 0 min 1,9 UV-I 995 W/m 10,5 km/h (2 Bft)
22.06.2014 10:42 17,4 C 19,4 C 70 % 1020,6 hPa 0,0 l/m 2 min 0 min 1,7 UV-I 995 W/m 8,4 km/h (2 Bft)
22.06.2014 10:44 17,3 C 18,9 C 72 % 1020,6 hPa 0,0 l/m 0 min 0 min 1,6 UV-I 321 W/m 0,0 km/h (0 Bft)
22.06.2014 10:46 17,8 C 19,4 C 76 % 1020,5 hPa 0,0 l/m 2 min 0 min 3,3 UV-I 1040 W/m 0,0 km/h (0 Bft)
22.06.2014 10:48 18,4 C 20,6 C 70 % 1020,5 hPa 0,0 l/m 2 min 0 min 3,2 UV-I 1022 W/m 10,5 km/h (2 Bft)
22.06.2014 10:50 18,8 C 20,6 C 70 % 1020,6 hPa 0,0 l/m 2 min 0 min 3,3 UV-I 1022 W/m 10,5 km/h (2 Bft)
22.06.2014 10:52 18,8 C 20,6 C 67 % 1020,6 hPa 0,0 l/m 2 min 0 min 3,2 UV-I 963 W/m 16,7 km/h (3 Bft)
22.06.2014 10:54 18,6 C 20,0 C 65 % 1020,7 hPa 0,0 l/m 2 min 0 min 3,1 UV-I 963 W/m 12,6 km/h (3 Bft)
22.06.2014 10:56 18,3 C 20,6 C 68 % 1020,6 hPa 0,0 l/m 2 min 0 min 3,3 UV-I 899 W/m 12,6 km/h (3 Bft)
22.06.2014 10:58 18,3 C 21,1 C 67 % 1020,6 hPa 0,0 l/m 2 min 0 min 3,4 UV-I 899 W/m 8,4 km/h (2 Bft)
22.06.2014 11:00 18,3 C 21,7 C 67 % 1020,6 hPa 0,0 l/m 2 min 0 min 3,4 UV-I 889 W/m 10,5 km/h (2 Bft)
22.06.2014 11:02 18,4 C 23,3 C 70 % 1020,6 hPa 0,0 l/m 2 min 0 min 3,5 UV-I 907 W/m 10,5 km/h (2 Bft)
22.06.2014 11:04 18,6 C 23,9 C 67 % 1020,6 hPa 0,0 l/m 2 min 0 min 3,5 UV-I 922 W/m 10,5 km/h (2 Bft)
22.06.2014 11:06 18,7 C 25,0 C 68 % 1020,6 hPa 0,0 l/m 2 min 0 min 3,7 UV-I 954 W/m 2,1 km/h (1 Bft)
22.06.2014 11:08 18,9 C 25,6 C 67 % 1020,6 hPa 0,0 l/m 2 min 0 min 3,7 UV-I 984 W/m 6,3 km/h (2 Bft)
22.06.2014 11:10 19,2 C 25,6 C 69 % 1020,6 hPa 0,0 l/m 2 min 0 min 3,7 UV-I 987 W/m 10,5 km/h (2 Bft)
22.06.2014 11:12 19,2 C 26,1 C 66 % 1020,6 hPa 0,0 l/m 2 min 0 min 3,7 UV-I 1027 W/m 8,4 km/h (2 Bft)
22.06.2014 11:14 19,3 C 26,7 C 68 % 1020,6 hPa 0,0 l/m 2 min 0 min 3,8 UV-I 1030 W/m 14,6 km/h (3 Bft)
22.06.2014 11:16 19,4 C 24,4 C 65 % 1020,6 hPa 0,0 l/m 0 min 0 min 1,7 UV-I 237 W/m 12,6 km/h (3 Bft)
22.06.2014 11:18 19,1 C 21,7 C 65 % 1020,6 hPa 0,0 l/m 0 min 0 min 1,5 UV-I 197 W/m 14,6 km/h (3 Bft)
22.06.2014 11:20 18,7 C 20,0 C 66 % 1020,6 hPa 0,0 l/m 0 min 0 min 1,7 UV-I 192 W/m 12,6 km/h (3 Bft)
22.06.2014 11:22 18,4 C 20,6 C 68 % 1020,7 hPa 0,0 l/m 0 min 0 min 3,8 UV-I 192 W/m 16,7 km/h (3 Bft)
22.06.2014 11:24 18,4 C 21,7 C 70 % 1020,7 hPa 0,0 l/m 2 min 0 min 3,9 UV-I 1000 W/m 18,8 km/h (3 Bft)
22.06.2014 11:26 18,4 C 22,8 C 67 % 1020,6 hPa 0,0 l/m 2 min 0 min 3,8 UV-I 995 W/m 12,6 km/h (3 Bft)
22.06.2014 11:28 18,4 C 23,3 C 68 % 1020,7 hPa 0,0 l/m 2 min 0 min 4,0 UV-I 1022 W/m 18,8 km/h (3 Bft)
22.06.2014 11:30 18,4 C 21,1 C 67 % 1020,7 hPa 0,0 l/m 2 min 0 min 1,8 UV-I 1022 W/m 18,8 km/h (3 Bft)
22.06.2014 11:32 18,6 C 21,1 C 71 % 1020,6 hPa 0,0 l/m 0 min 0 min 2,0 UV-I 264 W/m 20,9 km/h (4 Bft)
22.06.2014 11:34 18,9 C 21,1 C 67 % 1020,6 hPa 0,0 l/m 0 min 0 min 2,3 UV-I 264 W/m 12,6 km/h (3 Bft)
22.06.2014 11:36 18,9 C 21,1 C 65 % 1020,6 hPa 0,0 l/m 0 min 0 min 4,3 UV-I 264 W/m 8,4 km/h (2 Bft)
22.06.2014 11:38 19,2 C 21,1 C 67 % 1020,7 hPa 0,0 l/m 2 min 0 min 3,8 UV-I 1163 W/m 8,4 km/h (2 Bft)
22.06.2014 11:40 18,9 C 20,6 C 64 % 1020,6 hPa 0,0 l/m 0 min 0 min 2,2 UV-I 352 W/m 10,5 km/h (2 Bft)
22.06.2014 11:42 18,9 C 21,1 C 68 % 1020,6 hPa 0,0 l/m 0 min 0 min 4,2 UV-I 358 W/m 8,4 km/h (2 Bft)
22.06.2014 11:44 19,1 C 21,1 C 66 % 1020,6 hPa 0,0 l/m 2 min 0 min 4,1 UV-I 1043 W/m 10,5 km/h (2 Bft)
22.06.2014 11:46 18,7 C 20,6 C 65 % 1020,6 hPa 0,0 l/m 0 min 0 min 1,9 UV-I 323 W/m 8,4 km/h (2 Bft)
22.06.2014 11:48 18,5 C 20,6 C 68 % 1020,7 hPa 0,0 l/m 0 min 0 min 3,0 UV-I 384 W/m 14,6 km/h (3 Bft)
22.06.2014 11:50 18,7 C 21,7 C 69 % 1020,6 hPa 0,0 l/m 2 min 0 min 2,2 UV-I 1130 W/m 12,6 km/h (3 Bft)
22.06.2014 11:52 19,3 C 22,8 C 73 % 1020,6 hPa 0,0 l/m 2 min 0 min 1,7 UV-I 1116 W/m 12,6 km/h (3 Bft)
22.06.2014 11:54 19,5 C 21,1 C 66 % 1020,6 hPa 0,0 l/m 0 min 0 min 1,8 UV-I 202 W/m 14,6 km/h (3 Bft)
22.06.2014 11:56 19,3 C 21,1 C 68 % 1020,6 hPa 0,0 l/m 0 min 0 min 4,3 UV-I 192 W/m 14,6 km/h (3 Bft)
22.06.2014 11:58 19,3 C 23,3 C 67 % 1020,6 hPa 0,0 l/m 2 min 0 min 4,4 UV-I 1027 W/m 8,4 km/h (2 Bft)
22.06.2014 12:00 19,8 C 24,4 C 68 % 1020,6 hPa 0,0 l/m 2 min 0 min 4,5 UV-I 1037 W/m 8,4 km/h (2 Bft)
22.06.2014 12:02 20,1 C 25,6 C 64 % 1020,6 hPa 0,0 l/m 2 min 0 min 4,5 UV-I 1057 W/m 10,5 km/h (2 Bft)
22.06.2014 12:06 19,8 C 25,6 C 67 % 1020,6 hPa 0,0 l/m 2 min 0 min 4,6 UV-I 1097 W/m 20,9 km/h (4 Bft)
22.06.2014 12:08 19,9 C 26,1 C 64 % 1020,6 hPa 0,0 l/m 2 min 0 min 4,6 UV-I 1091 W/m 16,7 km/h (3 Bft)
22.06.2014 12:10 19,9 C 26,1 C 62 % 1020,6 hPa 0,0 l/m 2 min 0 min 4,5 UV-I 1091 W/m 16,7 km/h (3 Bft)
22.06.2014 12:12 19,8 C 26,7 C 62 % 1020,6 hPa 0,0 l/m 2 min 0 min 4,7 UV-I 1094 W/m 12,6 km/h (3 Bft)
22.06.2014 12:14 19,7 C 26,1 C 63 % 1020,5 hPa 0,0 l/m 2 min 0 min 4,7 UV-I 1142 W/m 12,6 km/h (3 Bft)
22.06.2014 12:16 19,8 C 25,0 C 64 % 1020,6 hPa 0,0 l/m 2 min 0 min 2,1 UV-I 1142 W/m 16,7 km/h (3 Bft)
22.06.2014 12:18 19,7 C 24,4 C 63 % 1020,6 hPa 0,0 l/m 0 min 0 min 4,9 UV-I 273 W/m 10,5 km/h (2 Bft)
22.06.2014 12:20 19,8 C 24,4 C 64 % 1020,6 hPa 0,0 l/m 2 min 0 min 3,2 UV-I 1182 W/m 14,6 km/h (3 Bft)
22.06.2014 12:22 20,3 C 24,4 C 65 % 1020,5 hPa 0,0 l/m 2 min 0 min 2,3 UV-I 1182 W/m 18,8 km/h (3 Bft)
22.06.2014 12:24 20,1 C 22,2 C 62 % 1020,6 hPa 0,0 l/m 0 min 0 min 2,2 UV-I 307 W/m 18,8 km/h (3 Bft)
22.06.2014 12:26 19,9 C 22,8 C 66 % 1020,5 hPa 0,0 l/m 0 min 0 min 3,0 UV-I 374 W/m 18,8 km/h (3 Bft)
22.06.2014 12:28 19,9 C 23,3 C 62 % 1020,5 hPa 0,0 l/m 0 min 0 min 3,3 UV-I 374 W/m 16,7 km/h (3 Bft)
22.06.2014 12:30 20,2 C 25,0 C 63 % 1020,6 hPa 0,0 l/m 2 min 0 min 4,2 UV-I 1067 W/m 10,5 km/h (2 Bft)
22.06.2014 12:32 20,8 C 26,1 C 64 % 1020,5 hPa 0,0 l/m 2 min 0 min 4,9 UV-I 1073 W/m 8,4 km/h (2 Bft)
22.06.2014 12:34 20,6 C 25,6 C 58 % 1020,4 hPa 0,0 l/m 2 min 0 min 5,0 UV-I 1067 W/m 10,5 km/h (2 Bft)
22.06.2014 12:36 20,3 C 25,6 C 59 % 1020,5 hPa 0,0 l/m 2 min 0 min 4,9 UV-I 1027 W/m 12,6 km/h (3 Bft)
22.06.2014 12:38 20,2 C 25,6 C 60 % 1020,4 hPa 0,0 l/m 2 min 0 min 4,9 UV-I 1094 W/m 12,6 km/h (3 Bft)
22.06.2014 12:40 20,9 C 26,1 C 65 % 1020,4 hPa 0,0 l/m 2 min 0 min 2,1 UV-I 1118 W/m 12,6 km/h (3 Bft)
22.06.2014 12:42 21,0 C 25,0 C 60 % 1020,5 hPa 0,0 l/m 0 min 0 min 2,0 UV-I 227 W/m 18,8 km/h (3 Bft)
22.06.2014 12:44 20,7 C 24,4 C 63 % 1020,4 hPa 0,0 l/m 0 min 0 min 4,8 UV-I 227 W/m 10,5 km/h (2 Bft)
22.06.2014 12:46 21,0 C 25,6 C 64 % 1020,4 hPa 0,0 l/m 2 min 0 min 4,8 UV-I 1138 W/m 14,6 km/h (3 Bft)
22.06.2014 12:48 21,3 C 25,6 C 63 % 1020,4 hPa 0,0 l/m 0 min 0 min 2,5 UV-I 246 W/m 18,8 km/h (3 Bft)
22.06.2014 12:50 21,0 C 24,4 C 58 % 1020,4 hPa 0,0 l/m 2 min 0 min 5,1 UV-I 1163 W/m 16,7 km/h (3 Bft)
22.06.2014 12:52 20,9 C 24,4 C 61 % 1020,4 hPa 0,0 l/m 2 min 0 min 2,9 UV-I 1158 W/m 8,4 km/h (2 Bft)
22.06.2014 12:54 21,0 C 24,4 C 60 % 1020,4 hPa 0,0 l/m 2 min 0 min 5,0 UV-I 1114 W/m 14,6 km/h (3 Bft)
22.06.2014 12:56 21,2 C 24,4 C 63 % 1020,4 hPa 0,0 l/m 2 min 0 min 2,2 UV-I 1086 W/m 18,8 km/h (3 Bft)
22.06.2014 12:58 21,6 C 25,0 C 59 % 1020,4 hPa 0,0 l/m 2 min 0 min 2,9 UV-I 952 W/m 16,7 km/h (3 Bft)
22.06.2014 13:00 21,6 C 24,4 C 57 % 1020,4 hPa 0,0 l/m 2 min 0 min 5,2 UV-I 940 W/m 14,6 km/h (3 Bft)
22.06.2014 13:02 20,9 C 23,9 C 57 % 1020,3 hPa 0,0 l/m 2 min 0 min 5,2 UV-I 1217 W/m 12,6 km/h (3 Bft)
22.06.2014 13:04 20,4 C 23,3 C 57 % 1020,3 hPa 0,0 l/m 2 min 0 min 5,0 UV-I 1217 W/m 12,6 km/h (3 Bft)
22.06.2014 13:06 20,2 C 22,8 C 59 % 1020,3 hPa 0,0 l/m 2 min 0 min 4,5 UV-I 825 W/m 12,6 km/h (3 Bft)
22.06.2014 13:08 20,0 C 22,8 C 60 % 1020,3 hPa 0,0 l/m 2 min 0 min 5,0 UV-I 825 W/m 16,7 km/h (3 Bft)
22.06.2014 13:10 20,2 C 22,8 C 60 % 1020,3 hPa 0,0 l/m 2 min 0 min 5,1 UV-I 1053 W/m 20,9 km/h (4 Bft)
22.06.2014 13:12 20,7 C 23,3 C 59 % 1020,4 hPa 0,0 l/m 2 min 0 min 5,2 UV-I 1059 W/m 18,8 km/h (3 Bft)
22.06.2014 13:14 20,7 C 23,9 C 57 % 1020,4 hPa 0,0 l/m 2 min 0 min 5,2 UV-I 1057 W/m 14,6 km/h (3 Bft)
22.06.2014 13:16 20,9 C 25,0 C 58 % 1020,3 hPa 0,0 l/m 2 min 0 min 5,2 UV-I 1049 W/m 12,6 km/h (3 Bft)
22.06.2014 13:18 20,9 C 25,0 C 57 % 1020,3 hPa 0,0 l/m 2 min 0 min 5,2 UV-I 1072 W/m 16,7 km/h (3 Bft)
22.06.2014 13:20 21,0 C 24,4 C 57 % 1020,3 hPa 0,0 l/m 2 min 0 min 5,2 UV-I 1072 W/m 14,6 km/h (3 Bft)
22.06.2014 13:22 21,1 C 23,9 C 57 % 1020,3 hPa 0,0 l/m 2 min 0 min 2,7 UV-I 1065 W/m 16,7 km/h (3 Bft)
22.06.2014 13:24 20,8 C 22,2 C 52 % 1020,3 hPa 0,0 l/m 2 min 0 min 4,3 UV-I 1081 W/m 14,6 km/h (3 Bft)
22.06.2014 13:26 20,7 C 22,2 C 57 % 1020,3 hPa 0,0 l/m 2 min 0 min 5,2 UV-I 1045 W/m 8,4 km/h (2 Bft)
22.06.2014 13:28 20,8 C 22,2 C 57 % 1020,3 hPa 0,0 l/m 2 min 0 min 5,2 UV-I 1061 W/m 16,7 km/h (3 Bft)
22.06.2014 13:30 21,4 C 22,8 C 60 % 1020,3 hPa 0,0 l/m 2 min 0 min 5,4 UV-I 1126 W/m 14,6 km/h (3 Bft)
22.06.2014 13:32 21,6 C 22,8 C 57 % 1020,3 hPa 0,0 l/m 2 min 0 min 5,4 UV-I 1168 W/m 18,8 km/h (3 Bft)
22.06.2014 13:34 21,6 C 23,3 C 58 % 1020,2 hPa 0,0 l/m 2 min 0 min 5,4 UV-I 1181 W/m 18,8 km/h (3 Bft)
22.06.2014 13:36 22,2 C 23,9 C 60 % 1020,3 hPa 0,0 l/m 2 min 0 min 5,4 UV-I 1257 W/m 12,6 km/h (3 Bft)
22.06.2014 13:38 22,3 C 23,3 C 54 % 1020,3 hPa 0,0 l/m 0 min 0 min 2,4 UV-I 380 W/m 16,7 km/h (3 Bft)
22.06.2014 13:40 22,1 C 22,8 C 54 % 1020,3 hPa 0,0 l/m 0 min 0 min 2,6 UV-I 437 W/m 18,8 km/h (3 Bft)
22.06.2014 13:42 21,8 C 22,2 C 53 % 1020,2 hPa 0,0 l/m 2 min 0 min 5,6 UV-I 518 W/m 14,6 km/h (3 Bft)
22.06.2014 13:44 21,5 C 22,8 C 53 % 1020,2 hPa 0,0 l/m 2 min 0 min 3,0 UV-I 641 W/m 14,6 km/h (3 Bft)
22.06.2014 13:46 21,1 C 22,2 C 55 % 1020,2 hPa 0,0 l/m 2 min 0 min 2,8 UV-I 522 W/m 29,3 km/h (5 Bft)
22.06.2014 13:48 21,0 C 22,2 C 55 % 1020,2 hPa 0,0 l/m 2 min 0 min 3,1 UV-I 614 W/m 20,9 km/h (4 Bft)
22.06.2014 13:50 20,8 C 21,7 C 56 % 1020,3 hPa 0,0 l/m 2 min 0 min 2,5 UV-I 544 W/m 16,7 km/h (3 Bft)
22.06.2014 13:52 20,6 C 21,7 C 56 % 1020,2 hPa 0,0 l/m 0 min 0 min 2,1 UV-I 406 W/m 12,6 km/h (3 Bft)
22.06.2014 13:54 20,6 C 21,1 C 57 % 1020,3 hPa 0,0 l/m 0 min 0 min 1,5 UV-I 358 W/m 16,7 km/h (3 Bft)
22.06.2014 13:56 20,8 C 21,1 C 58 % 1020,3 hPa 0,0 l/m 0 min 0 min 1,4 UV-I 328 W/m 16,7 km/h (3 Bft)
22.06.2014 13:58 20,8 C 21,1 C 57 % 1020,3 hPa 0,0 l/m 0 min 0 min 1,3 UV-I 304 W/m 14,6 km/h (3 Bft)
22.06.2014 14:00 20,6 C 20,6 C 55 % 1020,3 hPa 0,0 l/m 0 min 0 min 1,4 UV-I 309 W/m 18,8 km/h (3 Bft)
22.06.2014 14:02 20,5 C 20,6 C 57 % 1020,3 hPa 0,0 l/m 0 min 0 min 1,3 UV-I 305 W/m 12,6 km/h (3 Bft)
22.06.2014 14:04 20,3 C 20,6 C 58 % 1020,4 hPa 0,0 l/m 0 min 0 min 1,2 UV-I 269 W/m 18,8 km/h (3 Bft)
22.06.2014 14:06 20,3 C 20,0 C 57 % 1020,4 hPa 0,0 l/m 0 min 0 min 1,0 UV-I 246 W/m 14,6 km/h (3 Bft)
22.06.2014 14:08 20,2 C 20,0 C 57 % 1020,4 hPa 0,0 l/m 0 min 0 min 0,8 UV-I 230 W/m 14,6 km/h (3 Bft)
22.06.2014 14:10 20,1 C 20,0 C 57 % 1020,4 hPa 0,0 l/m 0 min 0 min 0,8 UV-I 218 W/m 12,6 km/h (3 Bft)
22.06.2014 14:12 20,1 C 19,4 C 58 % 1020,4 hPa 0,0 l/m 0 min 0 min 0,7 UV-I 218 W/m 8,4 km/h (2 Bft)
22.06.2014 14:14 20,0 C 19,4 C 58 % 1020,4 hPa 0,0 l/m 0 min 0 min 0,8 UV-I 222 W/m 12,6 km/h (3 Bft)
22.06.2014 14:16 19,9 C 19,4 C 57 % 1020,5 hPa 0,0 l/m 0 min 0 min 0,8 UV-I 240 W/m 16,7 km/h (3 Bft)
22.06.2014 14:18 19,9 C 19,4 C 58 % 1020,5 hPa 0,0 l/m 0 min 0 min 1,0 UV-I 256 W/m 16,7 km/h (3 Bft)
22.06.2014 14:20 19,8 C 19,4 C 58 % 1020,4 hPa 0,0 l/m 0 min 0 min 1,1 UV-I 271 W/m 16,7 km/h (3 Bft)
22.06.2014 14:22 19,7 C 19,4 C 58 % 1020,5 hPa 0,0 l/m 0 min 0 min 1,3 UV-I 293 W/m 16,7 km/h (3 Bft)
22.06.2014 14:24 19,7 C 19,4 C 58 % 1020,5 hPa 0,0 l/m 0 min 0 min 1,5 UV-I 312 W/m 14,6 km/h (3 Bft)
22.06.2014 14:26 19,6 C 19,4 C 59 % 1020,4 hPa 0,0 l/m 0 min 0 min 1,8 UV-I 339 W/m 12,6 km/h (3 Bft)
22.06.2014 14:28 19,7 C 19,4 C 59 % 1020,4 hPa 0,0 l/m 0 min 0 min 2,1 UV-I 389 W/m 14,6 km/h (3 Bft)
22.06.2014 14:30 19,7 C 20,6 C 58 % 1020,4 hPa 0,0 l/m 0 min 0 min 4,9 UV-I 463 W/m 12,6 km/h (3 Bft)
22.06.2014 14:32 20,2 C 23,9 C 59 % 1020,3 hPa 0,0 l/m 2 min 0 min 4,9 UV-I 1138 W/m 12,6 km/h (3 Bft)
22.06.2014 14:34 20,6 C 25,0 C 57 % 1020,3 hPa 0,0 l/m 2 min 0 min 4,4 UV-I 1136 W/m 20,9 km/h (4 Bft)
22.06.2014 14:36 20,4 C 22,8 C 56 % 1020,4 hPa 0,0 l/m 0 min 0 min 2,2 UV-I 354 W/m 16,7 km/h (3 Bft)
22.06.2014 14:38 20,3 C 21,7 C 57 % 1020,3 hPa 0,0 l/m 0 min 0 min 2,1 UV-I 328 W/m 20,9 km/h (4 Bft)
22.06.2014 14:40 20,1 C 21,1 C 57 % 1020,4 hPa 0,0 l/m 0 min 0 min 2,1 UV-I 338 W/m 14,6 km/h (3 Bft)
22.06.2014 14:42 20,1 C 21,1 C 58 % 1020,3 hPa 0,0 l/m 0 min 0 min 2,2 UV-I 363 W/m 14,6 km/h (3 Bft)
22.06.2014 14:44 20,0 C 20,6 C 57 % 1020,4 hPa 0,0 l/m 0 min 0 min 2,2 UV-I 378 W/m 20,9 km/h (4 Bft)
22.06.2014 14:46 19,9 C 20,6 C 57 % 1020,4 hPa 0,0 l/m 0 min 0 min 2,3 UV-I 446 W/m 16,7 km/h (3 Bft)
22.06.2014 14:48 19,8 C 20,6 C 57 % 1020,3 hPa 0,0 l/m 0 min 0 min 1,9 UV-I 346 W/m 10,5 km/h (2 Bft)
22.06.2014 14:50 19,9 C 20,6 C 58 % 1020,4 hPa 0,0 l/m 0 min 0 min 1,8 UV-I 328 W/m 8,4 km/h (2 Bft)
22.06.2014 14:52 19,8 C 20,6 C 58 % 1020,3 hPa 0,0 l/m 0 min 0 min 1,8 UV-I 317 W/m 12,6 km/h (3 Bft)
22.06.2014 14:54 19,9 C 20,6 C 59 % 1020,3 hPa 0,0 l/m 0 min 0 min 1,8 UV-I 330 W/m 14,6 km/h (3 Bft)
22.06.2014 14:56 20,2 C 20,6 C 61 % 1020,4 hPa 0,0 l/m 0 min 0 min 1,8 UV-I 338 W/m 12,6 km/h (3 Bft)
22.06.2014 14:58 20,2 C 20,6 C 58 % 1020,4 hPa 0,0 l/m 0 min 0 min 2,1 UV-I 363 W/m 12,6 km/h (3 Bft)
22.06.2014 15:00 20,2 C 21,1 C 59 % 1020,4 hPa 0,0 l/m 0 min 0 min 2,4 UV-I 419 W/m 12,6 km/h (3 Bft)
22.06.2014 15:02 20,4 C 21,7 C 61 % 1020,4 hPa 0,0 l/m 0 min 0 min 4,5 UV-I 419 W/m 8,4 km/h (2 Bft)
22.06.2014 15:04 20,9 C 22,8 C 60 % 1020,4 hPa 0,0 l/m 2 min 0 min 2,7 UV-I 564 W/m 8,4 km/h (2 Bft)
22.06.2014 15:06 21,1 C 22,8 C 58 % 1020,4 hPa 0,0 l/m 0 min 0 min 2,3 UV-I 445 W/m 12,6 km/h (3 Bft)
22.06.2014 15:08 20,9 C 22,2 C 56 % 1020,4 hPa 0,0 l/m 2 min 0 min 2,3 UV-I 455 W/m 2,1 km/h (1 Bft)
22.06.2014 15:10 20,9 C 22,2 C 58 % 1020,3 hPa 0,0 l/m 2 min 0 min 2,7 UV-I 598 W/m 14,6 km/h (3 Bft)
22.06.2014 15:12 20,8 C 23,9 C 58 % 1020,3 hPa 0,0 l/m 2 min 0 min 2,6 UV-I 598 W/m 16,7 km/h (3 Bft)
22.06.2014 15:14 20,9 C 23,3 C 56 % 1020,3 hPa 0,0 l/m 2 min 0 min 2,2 UV-I 469 W/m 12,6 km/h (3 Bft)
22.06.2014 15:16 20,9 C 22,8 C 60 % 1020,3 hPa 0,0 l/m 0 min 0 min 1,8 UV-I 394 W/m 8,4 km/h (2 Bft)
22.06.2014 15:18 21,1 C 22,2 C 56 % 1020,3 hPa 0,0 l/m 0 min 0 min 1,5 UV-I 339 W/m 6,3 km/h (2 Bft)
22.06.2014 15:20 20,9 C 21,7 C 57 % 1020,3 hPa 0,0 l/m 0 min 0 min 1,1 UV-I 289 W/m 6,3 km/h (2 Bft)
22.06.2014 15:22 20,8 C 21,1 C 60 % 1020,3 hPa 0,0 l/m 0 min 0 min 0,8 UV-I 232 W/m 16,7 km/h (3 Bft)
22.06.2014 15:24 20,7 C 20,6 C 58 % 1020,3 hPa 0,0 l/m 0 min 0 min 0,6 UV-I 210 W/m 10,5 km/h (2 Bft)
22.06.2014 15:26 20,6 C 20,6 C 57 % 1020,3 hPa 0,0 l/m 0 min 0 min 0,6 UV-I 206 W/m 10,5 km/h (2 Bft)
22.06.2014 15:28 20,4 C 20,0 C 57 % 1020,3 hPa 0,0 l/m 0 min 0 min 0,8 UV-I 218 W/m 8,4 km/h (2 Bft)
22.06.2014 15:30 20,3 C 20,0 C 59 % 1020,3 hPa 0,0 l/m 0 min 0 min 0,9 UV-I 235 W/m 12,6 km/h (3 Bft)
22.06.2014 15:32 20,3 C 20,0 C 58 % 1020,4 hPa 0,0 l/m 0 min 0 min 1,0 UV-I 259 W/m 14,6 km/h (3 Bft)
22.06.2014 15:34 20,2 C 20,0 C 58 % 1020,4 hPa 0,0 l/m 0 min 0 min 1,2 UV-I 263 W/m 10,5 km/h (2 Bft)
22.06.2014 15:36 20,2 C 20,0 C 58 % 1020,4 hPa 0,0 l/m 0 min 0 min 1,3 UV-I 269 W/m 14,6 km/h (3 Bft)
22.06.2014 15:38 20,3 C 20,0 C 60 % 1020,4 hPa 0,0 l/m 0 min 0 min 1,5 UV-I 289 W/m 10,5 km/h (2 Bft)
22.06.2014 15:40 20,3 C 20,6 C 58 % 1020,4 hPa 0,0 l/m 0 min 0 min 3,4 UV-I 323 W/m 18,8 km/h (3 Bft)
22.06.2014 15:42 20,3 C 21,7 C 58 % 1020,4 hPa 0,0 l/m 2 min 0 min 3,6 UV-I 984 W/m 14,6 km/h (3 Bft)
22.06.2014 15:44 20,4 C 21,7 C 58 % 1020,4 hPa 0,0 l/m 2 min 0 min 2,2 UV-I 499 W/m 20,9 km/h (4 Bft)
22.06.2014 15:46 20,6 C 22,2 C 59 % 1020,4 hPa 0,0 l/m 2 min 0 min 2,1 UV-I 440 W/m 18,8 km/h (3 Bft)
22.06.2014 15:48 20,9 C 22,2 C 61 % 1020,5 hPa 0,0 l/m 0 min 0 min 1,8 UV-I 411 W/m 23,0 km/h (4 Bft)
22.06.2014 15:50 21,1 C 21,7 C 59 % 1020,5 hPa 0,0 l/m 0 min 0 min 1,5 UV-I 336 W/m 16,7 km/h (3 Bft)
22.06.2014 15:52 20,9 C 21,1 C 56 % 1020,5 hPa 0,0 l/m 0 min 0 min 1,2 UV-I 325 W/m 12,6 km/h (3 Bft)
22.06.2014 15:54 20,7 C 21,1 C 58 % 1020,5 hPa 0,0 l/m 0 min 0 min 1,1 UV-I 312 W/m 12,6 km/h (3 Bft)
22.06.2014 15:56 20,7 C 20,6 C 58 % 1020,4 hPa 0,0 l/m 0 min 0 min 0,9 UV-I 269 W/m 14,6 km/h (3 Bft)
22.06.2014 15:58 20,5 C 20,6 C 58 % 1020,4 hPa 0,0 l/m 0 min 0 min 0,6 UV-I 251 W/m 10,5 km/h (2 Bft)
22.06.2014 16:00 20,5 C 20,6 C 58 % 1020,5 hPa 0,0 l/m 0 min 0 min 0,5 UV-I 235 W/m 16,7 km/h (3 Bft)
22.06.2014 16:02 20,5 C 20,0 C 57 % 1020,5 hPa 0,0 l/m 0 min 0 min 0,5 UV-I 221 W/m 8,4 km/h (2 Bft)
22.06.2014 16:04 20,5 C 20,0 C 59 % 1020,5 hPa 0,0 l/m 0 min 0 min 0,0 UV-I 222 W/m 23,0 km/h (4 Bft)
22.06.2014 16:06 20,4 C 20,0 C 59 % 1020,5 hPa 0,0 l/m 0 min 0 min 0,0 UV-I 230 W/m 18,8 km/h (3 Bft)
22.06.2014 16:08 20,4 C 20,0 C 58 % 1020,5 hPa 0,0 l/m 0 min 0 min 0,5 UV-I 246 W/m 12,6 km/h (3 Bft)
22.06.2014 16:10 20,3 C 20,0 C 59 % 1020,5 hPa 0,0 l/m 0 min 0 min 0,6 UV-I 264 W/m 14,6 km/h (3 Bft)
22.06.2014 16:12 20,3 C 20,0 C 59 % 1020,5 hPa 0,0 l/m 0 min 0 min 0,8 UV-I 283 W/m 14,6 km/h (3 Bft)
22.06.2014 16:14 20,3 C 20,0 C 58 % 1020,5 hPa 0,0 l/m 0 min 0 min 0,9 UV-I 304 W/m 18,8 km/h (3 Bft)
22.06.2014 16:16 20,3 C 20,0 C 58 % 1020,5 hPa 0,0 l/m 0 min 0 min 1,0 UV-I 323 W/m 14,6 km/h (3 Bft)
22.06.2014 16:18 20,4 C 20,0 C 59 % 1020,6 hPa 0,0 l/m 0 min 0 min 1,1 UV-I 347 W/m 10,5 km/h (2 Bft)
22.06.2014 16:20 20,5 C 20,6 C 58 % 1020,5 hPa 0,0 l/m 0 min 0 min 1,3 UV-I 370 W/m 16,7 km/h (3 Bft)
22.06.2014 16:22 20,4 C 20,6 C 58 % 1020,5 hPa 0,0 l/m 0 min 0 min 1,3 UV-I 352 W/m 16,7 km/h (3 Bft)
22.06.2014 16:24 20,4 C 20,6 C 58 % 1020,6 hPa 0,0 l/m 0 min 0 min 1,3 UV-I 312 W/m 16,7 km/h (3 Bft)
22.06.2014 16:26 20,3 C 20,0 C 58 % 1020,6 hPa 0,0 l/m 0 min 0 min 2,3 UV-I 315 W/m 16,7 km/h (3 Bft)
22.06.2014 16:28 20,3 C 20,6 C 58 % 1020,6 hPa 0,0 l/m 2 min 0 min 2,7 UV-I 865 W/m 8,4 km/h (2 Bft)
22.06.2014 16:30 20,6 C 20,6 C 58 % 1020,5 hPa 0,0 l/m 2 min 0 min 2,7 UV-I 848 W/m 16,7 km/h (3 Bft)
22.06.2014 16:32 20,8 C 21,1 C 57 % 1020,5 hPa 0,0 l/m 2 min 0 min 2,7 UV-I 864 W/m 14,6 km/h (3 Bft)
22.06.2014 16:34 21,2 C 21,1 C 59 % 1020,5 hPa 0,0 l/m 2 min 0 min 2,7 UV-I 872 W/m 6,3 km/h (2 Bft)
22.06.2014 16:36 21,5 C 21,7 C 54 % 1020,5 hPa 0,0 l/m 2 min 0 min 2,5 UV-I 881 W/m 14,6 km/h (3 Bft)
22.06.2014 16:38 21,2 C 21,1 C 55 % 1020,5 hPa 0,0 l/m 2 min 0 min 1,1 UV-I 886 W/m 16,7 km/h (3 Bft)
22.06.2014 16:40 21,0 C 21,1 C 56 % 1020,4 hPa 0,0 l/m 0 min 0 min 0,8 UV-I 238 W/m 14,6 km/h (3 Bft)
22.06.2014 16:42 20,8 C 20,6 C 56 % 1020,4 hPa 0,0 l/m 0 min 0 min 0,6 UV-I 202 W/m 16,7 km/h (3 Bft)
22.06.2014 16:44 20,7 C 20,6 C 57 % 1020,5 hPa 0,0 l/m 0 min 0 min 0,0 UV-I 184 W/m 18,8 km/h (3 Bft)
22.06.2014 16:46 20,6 C 20,0 C 57 % 1020,5 hPa 0,0 l/m 0 min 0 min 0,0 UV-I 170 W/m 16,7 km/h (3 Bft)
22.06.2014 16:48 20,4 C 20,0 C 57 % 1020,5 hPa 0,0 l/m 0 min 0 min 0,0 UV-I 158 W/m 12,6 km/h (3 Bft)
22.06.2014 16:50 20,4 C 20,0 C 59 % 1020,5 hPa 0,0 l/m 0 min 0 min 0,0 UV-I 155 W/m 8,4 km/h (2 Bft)
22.06.2014 16:52 20,4 C 20,0 C 59 % 1020,5 hPa 0,0 l/m 0 min 0 min 0,0 UV-I 162 W/m 14,6 km/h (3 Bft)
22.06.2014 16:54 20,4 C 20,0 C 58 % 1020,5 hPa 0,0 l/m 0 min 0 min 0,0 UV-I 190 W/m 12,6 km/h (3 Bft)
22.06.2014 16:56 20,4 C 20,0 C 59 % 1020,5 hPa 0,0 l/m 0 min 0 min 0,6 UV-I 222 W/m 12,6 km/h (3 Bft)
22.06.2014 16:58 20,4 C 20,0 C 59 % 1020,6 hPa 0,0 l/m 0 min 0 min 0,7 UV-I 251 W/m 16,7 km/h (3 Bft)
22.06.2014 17:00 20,4 C 20,0 C 60 % 1020,6 hPa 0,0 l/m 0 min 0 min 0,8 UV-I 253 W/m 18,8 km/h (3 Bft)
22.06.2014 17:02 20,3 C 20,0 C 60 % 1020,6 hPa 0,0 l/m 0 min 0 min 0,8 UV-I 248 W/m 16,7 km/h (3 Bft)
22.06.2014 17:04 20,2 C 20,0 C 60 % 1020,6 hPa 0,0 l/m 0 min 0 min 0,8 UV-I 243 W/m 20,9 km/h (4 Bft)
22.06.2014 17:06 20,2 C 20,0 C 61 % 1020,6 hPa 0,0 l/m 0 min 0 min 0,9 UV-I 245 W/m 14,6 km/h (3 Bft)
22.06.2014 17:09 20,2 C 20,0 C 61 % 1020,7 hPa 0,0 l/m 0 min 0 min 0,9 UV-I 259 W/m 16,7 km/h (3 Bft)
22.06.2014 17:10 20,2 C 19,4 C 61 % 1020,7 hPa 0,0 l/m 0 min 0 min 0,9 UV-I 263 W/m 16,7 km/h (3 Bft)
22.06.2014 17:12 20,2 C 20,0 C 61 % 1020,6 hPa 0,0 l/m 2 min 0 min 0,9 UV-I 720 W/m 20,9 km/h (4 Bft)
22.06.2014 17:14 20,3 C 20,0 C 61 % 1020,6 hPa 0,0 l/m 2 min 0 min 0,9 UV-I 697 W/m 14,6 km/h (3 Bft)
22.06.2014 17:16 20,4 C 20,0 C 60 % 1020,6 hPa 0,0 l/m 2 min 0 min 0,9 UV-I 677 W/m 14,6 km/h (3 Bft)
22.06.2014 17:18 20,6 C 20,6 C 60 % 1020,5 hPa 0,0 l/m 2 min 0 min 0,9 UV-I 661 W/m 14,6 km/h (3 Bft)
22.06.2014 17:20 20,9 C 20,6 C 60 % 1020,5 hPa 0,0 l/m 2 min 0 min 0,9 UV-I 665 W/m 12,6 km/h (3 Bft)
22.06.2014 17:22 21,1 C 20,6 C 58 % 1020,5 hPa 0,0 l/m 2 min 0 min 0,8 UV-I 665 W/m 18,8 km/h (3 Bft)
22.06.2014 17:24 21,4 C 20,6 C 59 % 1020,5 hPa 0,0 l/m 2 min 0 min 0,7 UV-I 661 W/m 10,5 km/h (2 Bft)
22.06.2014 17:26 21,7 C 21,1 C 58 % 1020,4 hPa 0,0 l/m 2 min 0 min 0,0 UV-I 661 W/m 8,4 km/h (2 Bft)
22.06.2014 17:28 21,5 C 20,6 C 56 % 1020,5 hPa 0,0 l/m 0 min 0 min 0,0 UV-I 144 W/m 14,6 km/h (3 Bft)
22.06.2014 17:30 21,2 C 20,0 C 57 % 1020,5 hPa 0,0 l/m 0 min 0 min 0,0 UV-I 105 W/m 20,9 km/h (4 Bft)
22.06.2014 17:32 20,9 C 20,0 C 57 % 1020,5 hPa 0,0 l/m 0 min 0 min 0,0 UV-I 89 W/m 14,6 km/h (3 Bft)
22.06.2014 17:34 20,7 C 19,4 C 58 % 1020,5 hPa 0,0 l/m 0 min 0 min 0,0 UV-I 77 W/m 10,5 km/h (2 Bft)
22.06.2014 17:36 20,4 C 19,4 C 58 % 1020,5 hPa 0,0 l/m 0 min 0 min 0,0 UV-I 67 W/m 12,6 km/h (3 Bft)
22.06.2014 17:38 20,4 C 19,4 C 59 % 1020,6 hPa 0,0 l/m 0 min 0 min 0,0 UV-I 67 W/m 12,6 km/h (3 Bft)
22.06.2014 17:40 20,2 C 18,9 C 60 % 1020,6 hPa 0,0 l/m 0 min 0 min 0,0 UV-I 69 W/m 16,7 km/h (3 Bft)
22.06.2014 17:42 20,2 C 18,9 C 60 % 1020,6 hPa 0,0 l/m 0 min 0 min 0,0 UV-I 75 W/m 20,9 km/h (4 Bft)
22.06.2014 17:44 20,1 C 18,9 C 61 % 1020,6 hPa 0,0 l/m 0 min 0 min 0,0 UV-I 80 W/m 12,6 km/h (3 Bft)
22.06.2014 17:46 20,0 C 18,9 C 61 % 1020,6 hPa 0,0 l/m 0 min 0 min 0,0 UV-I 89 W/m 10,5 km/h (2 Bft)
22.06.2014 17:48 19,9 C 18,9 C 61 % 1020,6 hPa 0,0 l/m 0 min 0 min 0,0 UV-I 95 W/m 16,7 km/h (3 Bft)
22.06.2014 17:50 19,9 C 18,9 C 62 % 1020,6 hPa 0,0 l/m 0 min 0 min 0,0 UV-I 95 W/m 14,6 km/h (3 Bft)
22.06.2014 17:52 19,8 C 18,9 C 62 % 1020,6 hPa 0,0 l/m 0 min 0 min 0,0 UV-I 97 W/m 14,6 km/h (3 Bft)
22.06.2014 17:54 19,7 C 18,9 C 62 % 1020,6 hPa 0,0 l/m 0 min 0 min 0,0 UV-I 104 W/m 12,6 km/h (3 Bft)
22.06.2014 17:56 19,7 C 18,9 C 62 % 1020,6 hPa 0,0 l/m 0 min 0 min 0,0 UV-I 104 W/m 12,6 km/h (3 Bft)
22.06.2014 17:58 19,7 C 18,9 C 62 % 1020,6 hPa 0,0 l/m 0 min 0 min 0,0 UV-I 105 W/m 16,7 km/h (3 Bft)
22.06.2014 18:00 19,7 C 18,9 C 62 % 1020,6 hPa 0,0 l/m 0 min 0 min 0,0 UV-I 99 W/m 18,8 km/h (3 Bft)
22.06.2014 18:02 19,7 C 18,9 C 62 % 1020,6 hPa 0,0 l/m 0 min 0 min 0,0 UV-I 99 W/m 14,6 km/h (3 Bft)
22.06.2014 18:06 19,7 C 18,9 C 61 % 1020,5 hPa 0,0 l/m 0 min 0 min 0,0 UV-I 97 W/m 14,6 km/h (3 Bft)
22.06.2014 18:08 19,6 C 18,9 C 61 % 1020,5 hPa 0,0 l/m 0 min 0 min 0,0 UV-I 104 W/m 16,7 km/h (3 Bft)
22.06.2014 18:10 19,7 C 18,9 C 62 % 1020,5 hPa 0,0 l/m 0 min 0 min 0,0 UV-I 113 W/m 6,3 km/h (2 Bft)
22.06.2014 18:12 19,7 C 18,9 C 62 % 1020,5 hPa 0,0 l/m 0 min 0 min 0,0 UV-I 120 W/m 12,6 km/h (3 Bft)
22.06.2014 18:14 19,7 C 18,9 C 61 % 1020,5 hPa 0,0 l/m 0 min 0 min 0,0 UV-I 120 W/m 12,6 km/h (3 Bft)
22.06.2014 18:16 19,7 C 18,9 C 62 % 1020,5 hPa 0,0 l/m 0 min 0 min 0,0 UV-I 113 W/m 10,5 km/h (2 Bft)
22.06.2014 18:18 19,7 C 18,9 C 61 % 1020,5 hPa 0,0 l/m 0 min 0 min 0,0 UV-I 112 W/m 8,4 km/h (2 Bft)
22.06.2014 18:20 19,7 C 18,9 C 62 % 1020,5 hPa 0,0 l/m 0 min 0 min 0,0 UV-I 115 W/m 12,6 km/h (3 Bft)
22.06.2014 18:22 19,7 C 18,9 C 62 % 1020,5 hPa 0,0 l/m 0 min 0 min 0,0 UV-I 123 W/m 12,6 km/h (3 Bft)
22.06.2014 18:24 19,7 C 18,9 C 62 % 1020,5 hPa 0,0 l/m 0 min 0 min 0,0 UV-I 136 W/m 8,4 km/h (2 Bft)
22.06.2014 18:26 19,7 C 18,9 C 61 % 1020,4 hPa 0,0 l/m 0 min 0 min 0,0 UV-I 141 W/m 4,2 km/h (1 Bft)
22.06.2014 18:28 19,8 C 18,9 C 62 % 1020,5 hPa 0,0 l/m 0 min 0 min 0,0 UV-I 131 W/m 6,3 km/h (2 Bft)
22.06.2014 18:30 19,8 C 18,9 C 62 % 1020,5 hPa 0,0 l/m 0 min 0 min 0,0 UV-I 125 W/m 8,4 km/h (2 Bft)
22.06.2014 18:32 19,8 C 18,9 C 63 % 1020,5 hPa 0,0 l/m 0 min 0 min 0,0 UV-I 125 W/m 6,3 km/h (2 Bft)
22.06.2014 18:34 19,8 C 18,9 C 62 % 1020,5 hPa 0,0 l/m 0 min 0 min 0,0 UV-I 160 W/m 0,0 km/h (0 Bft)
22.06.2014 18:36 19,9 C 19,4 C 63 % 1020,5 hPa 0,0 l/m 0 min 0 min 0,0 UV-I 166 W/m 8,4 km/h (2 Bft)
22.06.2014 18:38 19,9 C 19,4 C 62 % 1020,5 hPa 0,0 l/m 0 min 0 min 0,0 UV-I 154 W/m 10,5 km/h (2 Bft)
22.06.2014 18:40 19,8 C 18,9 C 62 % 1020,5 hPa 0,0 l/m 0 min 0 min 0,0 UV-I 152 W/m 12,6 km/h (3 Bft)
22.06.2014 18:42 19,8 C 18,9 C 62 % 1020,4 hPa 0,0 l/m 0 min 0 min 0,0 UV-I 158 W/m 8,4 km/h (2 Bft)
22.06.2014 18:44 19,8 C 18,9 C 61 % 1020,5 hPa 0,0 l/m 0 min 0 min 0,0 UV-I 162 W/m 8,4 km/h (2 Bft)
22.06.2014 18:46 19,8 C 18,9 C 61 % 1020,5 hPa 0,0 l/m 0 min 0 min 0,0 UV-I 171 W/m 8,4 km/h (2 Bft)
22.06.2014 18:48 19,8 C 18,9 C 61 % 1020,5 hPa 0,0 l/m 0 min 0 min 0,0 UV-I 174 W/m 16,7 km/h (3 Bft)
22.06.2014 18:50 19,8 C 18,9 C 60 % 1020,5 hPa 0,0 l/m 0 min 0 min 0,0 UV-I 179 W/m 14,6 km/h (3 Bft)
22.06.2014 18:52 19,9 C 18,9 C 60 % 1020,5 hPa 0,0 l/m 0 min 0 min 0,0 UV-I 197 W/m 12,6 km/h (3 Bft)
22.06.2014 18:54 19,9 C 18,9 C 62 % 1020,5 hPa 0,0 l/m 2 min 0 min 0,0 UV-I 253 W/m 8,4 km/h (2 Bft)
22.06.2014 18:56 20,1 C 18,9 C 63 % 1020,5 hPa 0,0 l/m 0 min 0 min 0,0 UV-I 184 W/m 8,4 km/h (2 Bft)
22.06.2014 18:58 20,1 C 18,9 C 60 % 1020,4 hPa 0,0 l/m 0 min 0 min 0,0 UV-I 155 W/m 14,6 km/h (3 Bft)
22.06.2014 19:00 20,1 C 18,9 C 60 % 1020,5 hPa 0,0 l/m 0 min 0 min 0,0 UV-I 147 W/m 23,0 km/h (4 Bft)
22.06.2014 19:02 20,1 C 18,9 C 60 % 1020,5 hPa 0,0 l/m 0 min 0 min 0,0 UV-I 130 W/m 16,7 km/h (3 Bft)
22.06.2014 19:04 20,0 C 18,9 C 59 % 1020,6 hPa 0,0 l/m 0 min 0 min 0,0 UV-I 105 W/m 18,8 km/h (3 Bft)
22.06.2014 19:06 19,9 C 18,9 C 60 % 1020,6 hPa 0,0 l/m 0 min 0 min 0,0 UV-I 93 W/m 16,7 km/h (3 Bft)
22.06.2014 19:08 19,9 C 18,9 C 60 % 1020,6 hPa 0,0 l/m 0 min 0 min 0,0 UV-I 83 W/m 18,8 km/h (3 Bft)
22.06.2014 19:10 19,8 C 18,9 C 60 % 1020,6 hPa 0,0 l/m 0 min 0 min 0,0 UV-I 79 W/m 16,7 km/h (3 Bft)
22.06.2014 19:12 19,7 C 18,3 C 60 % 1020,6 hPa 0,0 l/m 0 min 0 min 0,0 UV-I 80 W/m 20,9 km/h (4 Bft)
22.06.2014 19:14 19,7 C 18,3 C 60 % 1020,7 hPa 0,0 l/m 0 min 0 min 0,0 UV-I 80 W/m 14,6 km/h (3 Bft)
22.06.2014 19:16 19,6 C 18,3 C 60 % 1020,7 hPa 0,0 l/m 0 min 0 min 0,0 UV-I 80 W/m 16,7 km/h (3 Bft)
22.06.2014 19:18 19,6 C 18,3 C 61 % 1020,6 hPa 0,0 l/m 0 min 0 min 0,0 UV-I 83 W/m 6,3 km/h (2 Bft)
22.06.2014 19:20 19,6 C 18,3 C 61 % 1020,6 hPa 0,0 l/m 0 min 0 min 0,0 UV-I 87 W/m 10,5 km/h (2 Bft)
22.06.2014 19:22 19,6 C 18,3 C 60 % 1020,7 hPa 0,0 l/m 0 min 0 min 0,0 UV-I 89 W/m 10,5 km/h (2 Bft)
22.06.2014 19:24 19,6 C 18,3 C 60 % 1020,7 hPa 0,0 l/m 0 min 0 min 0,0 UV-I 89 W/m 12,6 km/h (3 Bft)
22.06.2014 19:26 19,6 C 18,3 C 60 % 1020,7 hPa 0,0 l/m 0 min 0 min 0,0 UV-I 93 W/m 14,6 km/h (3 Bft)
22.06.2014 19:28 19,6 C 18,3 C 60 % 1020,8 hPa 0,0 l/m 0 min 0 min 0,0 UV-I 93 W/m 10,5 km/h (2 Bft)
22.06.2014 19:30 19,6 C 18,3 C 61 % 1020,7 hPa 0,0 l/m 0 min 0 min 0,0 UV-I 99 W/m 12,6 km/h (3 Bft)
22.06.2014 19:32 19,6 C 18,3 C 61 % 1020,7 hPa 0,0 l/m 0 min 0 min 0,0 UV-I 160 W/m 12,6 km/h (3 Bft)
22.06.2014 19:34 19,6 C 18,3 C 61 % 1020,7 hPa 0,0 l/m 2 min 0 min 0,0 UV-I 305 W/m 16,7 km/h (3 Bft)
22.06.2014 19:36 19,6 C 18,9 C 61 % 1020,7 hPa 0,0 l/m 2 min 0 min 0,0 UV-I 288 W/m 18,8 km/h (3 Bft)
22.06.2014 19:38 19,7 C 18,9 C 60 % 1020,8 hPa 0,0 l/m 2 min 0 min 0,0 UV-I 312 W/m 20,9 km/h (4 Bft)
22.06.2014 19:40 19,8 C 18,9 C 60 % 1020,7 hPa 0,0 l/m 2 min 0 min 0,0 UV-I 243 W/m 18,8 km/h (3 Bft)
22.06.2014 19:42 19,9 C 18,9 C 60 % 1020,8 hPa 0,0 l/m 0 min 0 min 0,0 UV-I 144 W/m 27,2 km/h (4 Bft)
22.06.2014 19:44 19,9 C 18,9 C 59 % 1020,7 hPa 0,0 l/m 0 min 0 min 0,0 UV-I 121 W/m 20,9 km/h (4 Bft)
22.06.2014 19:46 19,8 C 18,9 C 59 % 1020,7 hPa 0,0 l/m 0 min 0 min 0,0 UV-I 109 W/m 20,9 km/h (4 Bft)
22.06.2014 19:48 19,7 C 18,3 C 59 % 1020,8 hPa 0,0 l/m 0 min 0 min 0,0 UV-I 93 W/m 16,7 km/h (3 Bft)
22.06.2014 19:50 19,7 C 18,3 C 60 % 1020,8 hPa 0,0 l/m 0 min 0 min 0,0 UV-I 75 W/m 20,9 km/h (4 Bft)
22.06.2014 19:52 19,6 C 18,3 C 60 % 1020,8 hPa 0,0 l/m 0 min 0 min 0,0 UV-I 67 W/m 23,0 km/h (4 Bft)
22.06.2014 19:54 19,4 C 18,3 C 60 % 1020,8 hPa 0,0 l/m 0 min 0 min 0,0 UV-I 67 W/m 14,6 km/h (3 Bft)
22.06.2014 19:56 19,4 C 17,8 C 60 % 1020,8 hPa 0,0 l/m 0 min 0 min 0,0 UV-I 72 W/m 20,9 km/h (4 Bft)
22.06.2014 19:58 19,3 C 17,8 C 60 % 1020,8 hPa 0,0 l/m 0 min 0 min 0,0 UV-I 77 W/m 12,6 km/h (3 Bft)
22.06.2014 20:00 19,2 C 17,8 C 60 % 1020,8 hPa 0,0 l/m 2 min 0 min 0,0 UV-I 186 W/m 10,5 km/h (2 Bft)
22.06.2014 20:02 19,2 C 18,3 C 61 % 1020,8 hPa 0,0 l/m 2 min 0 min 0,0 UV-I 192 W/m 10,5 km/h (2 Bft)
22.06.2014 20:04 19,3 C 18,3 C 61 % 1020,9 hPa 0,0 l/m 2 min 0 min 0,0 UV-I 160 W/m 20,9 km/h (4 Bft)
22.06.2014 20:06 19,3 C 18,3 C 61 % 1021,0 hPa 0,0 l/m 0 min 0 min 0,0 UV-I 109 W/m 27,2 km/h (4 Bft)
22.06.2014 20:08 19,3 C 18,3 C 62 % 1021,0 hPa 0,0 l/m 0 min 0 min 0,0 UV-I 117 W/m 23,0 km/h (4 Bft)
22.06.2014 20:10 19,3 C 18,3 C 62 % 1020,9 hPa 0,0 l/m 2 min 0 min 0,0 UV-I 186 W/m 18,8 km/h (3 Bft)
22.06.2014 20:12 19,3 C 18,3 C 63 % 1020,9 hPa 0,0 l/m 2 min 0 min 0,0 UV-I 150 W/m 16,7 km/h (3 Bft)
22.06.2014 20:14 19,3 C 18,3 C 63 % 1021,0 hPa 0,0 l/m 0 min 0 min 0,0 UV-I 109 W/m 14,6 km/h (3 Bft)
22.06.2014 20:16 19,3 C 18,3 C 63 % 1021,0 hPa 0,0 l/m 2 min 0 min 0,0 UV-I 176 W/m 20,9 km/h (4 Bft)
22.06.2014 20:18 19,2 C 18,3 C 63 % 1021,1 hPa 0,0 l/m 2 min 0 min 0,0 UV-I 163 W/m 27,2 km/h (4 Bft)
22.06.2014 20:20 19,2 C 17,8 C 63 % 1021,1 hPa 0,0 l/m 2 min 0 min 0,0 UV-I 150 W/m 23,0 km/h (4 Bft)
22.06.2014 20:22 19,1 C 17,8 C 63 % 1021,1 hPa 0,0 l/m 2 min 0 min 0,0 UV-I 141 W/m 18,8 km/h (3 Bft)
22.06.2014 20:24 19,1 C 17,8 C 63 % 1021,1 hPa 0,0 l/m 2 min 0 min 0,0 UV-I 131 W/m 25,1 km/h (4 Bft)
22.06.2014 20:26 19,0 C 17,8 C 63 % 1021,1 hPa 0,0 l/m 0 min 0 min 0,0 UV-I 59 W/m 14,6 km/h (3 Bft)
22.06.2014 20:28 18,9 C 17,8 C 64 % 1021,1 hPa 0,0 l/m 0 min 0 min 0,0 UV-I 51 W/m 14,6 km/h (3 Bft)
22.06.2014 20:30 18,8 C 17,2 C 64 % 1021,1 hPa 0,0 l/m 0 min 0 min 0,0 UV-I 89 W/m 20,9 km/h (4 Bft)
22.06.2014 20:32 18,7 C 17,2 C 64 % 1021,1 hPa 0,0 l/m 2 min 0 min 0,0 UV-I 93 W/m 16,7 km/h (3 Bft)
22.06.2014 20:34 18,7 C 17,2 C 64 % 1021,1 hPa 0,0 l/m 0 min 0 min 0,0 UV-I 80 W/m 20,9 km/h (4 Bft)
22.06.2014 20:36 18,6 C 17,2 C 65 % 1021,1 hPa 0,0 l/m 0 min 0 min 0,0 UV-I 79 W/m 16,7 km/h (3 Bft)
22.06.2014 20:38 18,5 C 17,2 C 65 % 1021,1 hPa 0,0 l/m 0 min 0 min 0,0 UV-I 79 W/m 14,6 km/h (3 Bft)
22.06.2014 20:40 18,5 C 17,2 C 65 % 1021,2 hPa 0,0 l/m 0 min 0 min 0,0 UV-I 79 W/m 10,5 km/h (2 Bft)
22.06.2014 20:41 18,4 C 17,2 C 65 % 1021,2 hPa 0,0 l/m 0 min 0 min 0,0 UV-I 64 W/m 10,5 km/h (2 Bft)
22.06.2014 20:42 18,4 C 17,2 C 65 % 1021,2 hPa 0,0 l/m 0 min 0 min 0,0 UV-I 62 W/m 10,5 km/h (2 Bft)
22.06.2014 20:43 18,4 C 17,2 C 66 % 1021,2 hPa 0,0 l/m 0 min 0 min 0,0 UV-I 62 W/m 8,4 km/h (2 Bft)
22.06.2014 20:44 18,3 C 17,2 C 66 % 1021,1 hPa 0,0 l/m 0 min 0 min 0,0 UV-I 62 W/m 8,4 km/h (2 Bft)
22.06.2014 20:45 18,3 C 17,2 C 66 % 1021,2 hPa 0,0 l/m 0 min 0 min 0,0 UV-I 67 W/m 8,4 km/h (2 Bft)
22.06.2014 20:46 18,3 C 16,7 C 66 % 1021,2 hPa 0,0 l/m 0 min 0 min 0,0 UV-I 64 W/m 14,6 km/h (3 Bft)
22.06.2014 20:47 18,3 C 16,7 C 66 % 1021,3 hPa 0,0 l/m 0 min 0 min 0,0 UV-I 69 W/m 16,7 km/h (3 Bft)
22.06.2014 20:48 18,2 C 16,7 C 66 % 1021,2 hPa 0,0 l/m 0 min 0 min 0,0 UV-I 67 W/m 16,7 km/h (3 Bft)
22.06.2014 20:49 18,2 C 16,7 C 66 % 1021,2 hPa 0,0 l/m 0 min 0 min 0,0 UV-I 61 W/m 10,5 km/h (2 Bft)
22.06.2014 20:50 18,2 C 16,7 C 66 % 1021,2 hPa 0,0 l/m 0 min 0 min 0,0 UV-I 61 W/m 8,4 km/h (2 Bft)
22.06.2014 20:51 18,2 C 16,7 C 66 % 1021,2 hPa 0,0 l/m 0 min 0 min 0,0 UV-I 61 W/m 8,4 km/h (2 Bft)
22.06.2014 20:52 18,2 C 16,7 C 67 % 1021,2 hPa 0,0 l/m 0 min 0 min 0,0 UV-I 61 W/m 10,5 km/h (2 Bft)
22.06.2014 20:53 18,2 C 16,7 C 67 % 1021,2 hPa 0,0 l/m 0 min 0 min 0,0 UV-I 59 W/m 10,5 km/h (2 Bft)
22.06.2014 20:54 18,1 C 16,7 C 67 % 1021,2 hPa 0,0 l/m 0 min 0 min 0,0 UV-I 56 W/m 12,6 km/h (3 Bft)
22.06.2014 20:55 18,1 C 16,7 C 67 % 1021,2 hPa 0,0 l/m 0 min 0 min 0,0 UV-I 53 W/m 8,4 km/h (2 Bft)
22.06.2014 20:56 18,1 C 16,7 C 67 % 1021,3 hPa 0,0 l/m 0 min 0 min 0,0 UV-I 53 W/m 12,6 km/h (3 Bft)
22.06.2014 20:57 18,1 C 16,7 C 67 % 1021,3 hPa 0,0 l/m 0 min 0 min 0,0 UV-I 51 W/m 10,5 km/h (2 Bft)
22.06.2014 20:58 18,1 C 16,7 C 67 % 1021,2 hPa 0,0 l/m 0 min 0 min 0,0 UV-I 51 W/m 12,6 km/h (3 Bft)
22.06.2014 20:59 18,1 C 16,7 C 67 % 1021,3 hPa 0,0 l/m 0 min 0 min 0,0 UV-I 48 W/m 8,4 km/h (2 Bft)
22.06.2014 21:00 18,1 C 16,7 C 67 % 1021,2 hPa 0,0 l/m 0 min 0 min 0,0 UV-I 46 W/m 6,3 km/h (2 Bft)
22.06.2014 21:01 18,1 C 16,7 C 67 % 1021,3 hPa 0,0 l/m 0 min 0 min 0,0 UV-I 43 W/m 12,6 km/h (3 Bft)
22.06.2014 21:02 18,0 C 16,7 C 67 % 1021,2 hPa 0,0 l/m 0 min 0 min 0,0 UV-I 43 W/m 10,5 km/h (2 Bft)
22.06.2014 21:03 18,0 C 16,7 C 66 % 1021,2 hPa 0,0 l/m 0 min 0 min 0,0 UV-I 40 W/m 16,7 km/h (3 Bft)
22.06.2014 21:04 18,0 C 16,7 C 66 % 1021,3 hPa 0,0 l/m 0 min 0 min 0,0 UV-I 40 W/m 16,7 km/h (3 Bft)
22.06.2014 21:05 17,9 C 16,7 C 66 % 1021,2 hPa 0,0 l/m 0 min 0 min 0,0 UV-I 38 W/m 10,5 km/h (2 Bft)
22.06.2014 21:06 17,9 C 16,7 C 66 % 1021,3 hPa 0,0 l/m 0 min 0 min 0,0 UV-I 38 W/m 12,6 km/h (3 Bft)
22.06.2014 21:07 17,9 C 16,7 C 66 % 1021,2 hPa 0,0 l/m 0 min 0 min 0,0 UV-I 37 W/m 10,5 km/h (2 Bft)
22.06.2014 21:08 17,9 C 16,7 C 66 % 1021,2 hPa 0,0 l/m 0 min 0 min 0,0 UV-I 34 W/m 14,6 km/h (3 Bft)
22.06.2014 21:09 17,9 C 16,7 C 67 % 1021,3 hPa 0,0 l/m 0 min 0 min 0,0 UV-I 34 W/m 8,4 km/h (2 Bft)
22.06.2014 21:10 17,9 C 16,1 C 67 % 1021,3 hPa 0,0 l/m 0 min 0 min 0,0 UV-I 32 W/m 16,7 km/h (3 Bft)
22.06.2014 21:11 17,8 C 16,1 C 67 % 1021,3 hPa 0,0 l/m 0 min 0 min 0,0 UV-I 32 W/m 20,9 km/h (4 Bft)
22.06.2014 21:12 17,8 C 16,1 C 66 % 1021,3 hPa 0,0 l/m 0 min 0 min 0,0 UV-I 30 W/m 20,9 km/h (4 Bft)
22.06.2014 21:13 17,8 C 16,1 C 66 % 1021,2 hPa 0,0 l/m 0 min 0 min 0,0 UV-I 29 W/m 8,4 km/h (2 Bft)
22.06.2014 21:14 17,8 C 16,1 C 66 % 1021,3 hPa 0,0 l/m 0 min 0 min 0,0 UV-I 29 W/m 10,5 km/h (2 Bft)
22.06.2014 21:16 17,7 C 16,1 C 67 % 1021,3 hPa 0,0 l/m 0 min 0 min 0,0 UV-I 26 W/m 8,4 km/h (2 Bft)
22.06.2014 21:18 17,7 C 16,1 C 67 % 1021,3 hPa 0,0 l/m 0 min 0 min 0,0 UV-I 24 W/m 8,4 km/h (2 Bft)
22.06.2014 21:20 17,6 C 16,1 C 67 % 1021,4 hPa 0,0 l/m 0 min 0 min 0,0 UV-I 24 W/m 18,8 km/h (3 Bft)
22.06.2014 21:22 17,6 C 16,1 C 67 % 1021,3 hPa 0,0 l/m 0 min 0 min 0,0 UV-I 22 W/m 16,7 km/h (3 Bft)
22.06.2014 21:24 17,6 C 16,1 C 67 % 1021,4 hPa 0,0 l/m 0 min 0 min 0,0 UV-I 22 W/m 18,8 km/h (3 Bft)
22.06.2014 21:26 17,5 C 16,1 C 67 % 1021,3 hPa 0,0 l/m 0 min 0 min 0,0 UV-I 21 W/m 20,9 km/h (4 Bft)
22.06.2014 21:28 17,4 C 16,1 C 67 % 1021,4 hPa 0,0 l/m 0 min 0 min 0,0 UV-I 21 W/m 10,5 km/h (2 Bft)
22.06.2014 21:30 17,4 C 16,1 C 67 % 1021,4 hPa 0,0 l/m 0 min 0 min 0,0 UV-I 18 W/m 16,7 km/h (3 Bft)
22.06.2014 21:32 17,4 C 16,1 C 67 % 1021,4 hPa 0,0 l/m 2 min 0 min 0,0 UV-I 18 W/m 10,5 km/h (2 Bft)
22.06.2014 21:34 17,3 C 15,6 C 68 % 1021,5 hPa 0,0 l/m 2 min 0 min 0,0 UV-I 16 W/m 14,6 km/h (3 Bft)
22.06.2014 21:36 17,2 C 15,6 C 68 % 1021,4 hPa 0,0 l/m 2 min 0 min 0,0 UV-I 16 W/m 10,5 km/h (2 Bft)
22.06.2014 21:38 17,2 C 15,6 C 68 % 1021,5 hPa 0,0 l/m 2 min 0 min 0,0 UV-I 14 W/m 10,5 km/h (2 Bft)
22.06.2014 21:40 17,1 C 15,6 C 69 % 1021,5 hPa 0,0 l/m 2 min 0 min 0,0 UV-I 14 W/m 10,5 km/h (2 Bft)
22.06.2014 21:42 17,0 C 15,6 C 69 % 1021,4 hPa 0,0 l/m 0 min 0 min 0,0 UV-I 13 W/m 14,6 km/h (3 Bft)
22.06.2014 21:44 16,9 C 15,6 C 69 % 1021,5 hPa 0,0 l/m 0 min 0 min 0,0 UV-I 13 W/m 12,6 km/h (3 Bft)
22.06.2014 21:46 16,8 C 15,6 C 69 % 1021,5 hPa 0,0 l/m 0 min 0 min 0,0 UV-I 10 W/m 14,6 km/h (3 Bft)
22.06.2014 21:48 16,8 C 15,6 C 70 % 1021,5 hPa 0,0 l/m 0 min 0 min 0,0 UV-I 10 W/m 10,5 km/h (2 Bft)
22.06.2014 21:50 16,7 C 15,0 C 70 % 1021,6 hPa 0,0 l/m 0 min 0 min 0,0 UV-I 8 W/m 8,4 km/h (2 Bft)
22.06.2014 21:52 16,7 C 15,0 C 70 % 1021,6 hPa 0,0 l/m 0 min 0 min 0,0 UV-I 8 W/m 8,4 km/h (2 Bft)
22.06.2014 21:54 16,7 C 15,0 C 70 % 1021,6 hPa 0,0 l/m 0 min 0 min 0,0 UV-I 6 W/m 8,4 km/h (2 Bft)
22.06.2014 21:56 16,6 C 15,0 C 70 % 1021,6 hPa 0,0 l/m 0 min 0 min 0,0 UV-I 6 W/m 8,4 km/h (2 Bft)
22.06.2014 21:59 16,5 C 15,0 C 71 % 1021,7 hPa 0,0 l/m 0 min 0 min 0,0 UV-I 6 W/m 8,4 km/h (2 Bft)
22.06.2014 22:00 16,5 C 15,0 C 71 % 1021,7 hPa 0,0 l/m 0 min 0 min 0,0 UV-I 0 W/m 2,1 km/h (1 Bft)
22.06.2014 22:02 16,4 C 15,0 C 71 % 1021,7 hPa 0,0 l/m 0 min 0 min 0,0 UV-I 0 W/m 8,4 km/h (2 Bft)
22.06.2014 22:04 16,4 C 15,0 C 71 % 1021,8 hPa 0,0 l/m 0 min 0 min 0,0 UV-I 0 W/m 6,3 km/h (2 Bft)
22.06.2014 22:06 16,3 C 15,0 C 71 % 1021,8 hPa 0,0 l/m 0 min 0 min 0,0 UV-I 0 W/m 14,6 km/h (3 Bft)
22.06.2014 22:08 16,3 C 15,0 C 71 % 1021,8 hPa 0,0 l/m 0 min 0 min 0,0 UV-I 0 W/m 8,4 km/h (2 Bft)
22.06.2014 22:10 16,2 C 15,0 C 72 % 1021,8 hPa 0,0 l/m 0 min 0 min 0,0 UV-I 0 W/m 10,5 km/h (2 Bft)
22.06.2014 22:12 16,2 C 14,4 C 72 % 1021,8 hPa 0,0 l/m 0 min 0 min 0,0 UV-I 0 W/m 6,3 km/h (2 Bft)
22.06.2014 22:14 16,1 C 14,4 C 72 % 1021,8 hPa 0,0 l/m 0 min 0 min 0,0 UV-I 0 W/m 2,1 km/h (1 Bft)
22.06.2014 22:16 16,1 C 14,4 C 73 % 1021,9 hPa 0,0 l/m 0 min 0 min 0,0 UV-I 0 W/m 6,3 km/h (2 Bft)
22.06.2014 22:18 15,9 C 14,4 C 73 % 1021,8 hPa 0,0 l/m 0 min 0 min 0,0 UV-I 0 W/m 2,1 km/h (1 Bft)
22.06.2014 22:20 15,8 C 14,4 C 73 % 1021,9 hPa 0,0 l/m 0 min 0 min 0,0 UV-I 0 W/m 4,2 km/h (1 Bft)
22.06.2014 22:22 15,7 C 14,4 C 74 % 1021,9 hPa 0,0 l/m 0 min 0 min 0,0 UV-I 0 W/m 0,0 km/h (0 Bft)
22.06.2014 22:24 15,6 C 13,9 C 74 % 1021,9 hPa 0,0 l/m 0 min 0 min 0,0 UV-I 0 W/m 0,0 km/h (0 Bft)
22.06.2014 22:26 15,6 C 13,9 C 75 % 1021,9 hPa 0,0 l/m 0 min 0 min 0,0 UV-I 0 W/m 6,3 km/h (2 Bft)
22.06.2014 22:28 15,5 C 13,9 C 75 % 1022,0 hPa 0,0 l/m 0 min 0 min 0,0 UV-I 0 W/m 10,5 km/h (2 Bft)
22.06.2014 22:30 15,5 C 13,9 C 75 % 1022,0 hPa 0,0 l/m 0 min 0 min 0,0 UV-I 0 W/m 10,5 km/h (2 Bft)
22.06.2014 22:32 15,6 C 13,9 C 74 % 1022,0 hPa 0,0 l/m 0 min 0 min 0,0 UV-I 0 W/m 8,4 km/h (2 Bft)
22.06.2014 22:34 15,6 C 13,9 C 74 % 1022,0 hPa 0,0 l/m 0 min 0 min 0,0 UV-I 0 W/m 8,4 km/h (2 Bft)
22.06.2014 22:36 15,6 C 13,9 C 74 % 1022,1 hPa 0,0 l/m 0 min 0 min 0,0 UV-I 0 W/m 8,4 km/h (2 Bft)
22.06.2014 22:38 15,5 C 13,9 C 74 % 1022,1 hPa 0,0 l/m 0 min 0 min 0,0 UV-I 0 W/m 12,6 km/h (3 Bft)
22.06.2014 22:40 15,4 C 13,9 C 74 % 1022,1 hPa 0,0 l/m 0 min 0 min 0,0 UV-I 0 W/m 12,6 km/h (3 Bft)
22.06.2014 22:42 15,4 C 13,9 C 74 % 1022,1 hPa 0,0 l/m 0 min 0 min 0,0 UV-I 0 W/m 12,6 km/h (3 Bft)
22.06.2014 22:44 15,4 C 13,9 C 74 % 1022,1 hPa 0,0 l/m 0 min 0 min 0,0 UV-I 0 W/m 12,6 km/h (3 Bft)
22.06.2014 22:46 15,3 C 13,9 C 75 % 1022,2 hPa 0,0 l/m 0 min 0 min 0,0 UV-I 0 W/m 10,5 km/h (2 Bft)
22.06.2014 22:48 15,3 C 13,9 C 75 % 1022,2 hPa 0,0 l/m 0 min 0 min 0,0 UV-I 0 W/m 10,5 km/h (2 Bft)
22.06.2014 22:50 15,2 C 13,9 C 75 % 1022,2 hPa 0,0 l/m 0 min 0 min 0,0 UV-I 0 W/m 10,5 km/h (2 Bft)
22.06.2014 22:52 15,2 C 13,9 C 75 % 1022,3 hPa 0,0 l/m 0 min 0 min 0,0 UV-I 0 W/m 10,5 km/h (2 Bft)
22.06.2014 22:54 15,1 C 13,9 C 75 % 1022,2 hPa 0,0 l/m 0 min 0 min 0,0 UV-I 0 W/m 14,6 km/h (3 Bft)
22.06.2014 22:56 15,1 C 13,9 C 75 % 1022,2 hPa 0,0 l/m 0 min 0 min 0,0 UV-I 0 W/m 14,6 km/h (3 Bft)
22.06.2014 22:58 15,1 C 13,9 C 74 % 1022,2 hPa 0,0 l/m 0 min 0 min 0,0 UV-I 0 W/m 20,9 km/h (4 Bft)
22.06.2014 23:00 15,1 C 13,9 C 74 % 1022,4 hPa 0,0 l/m 0 min 0 min 0,0 UV-I 0 W/m 14,6 km/h (3 Bft)
22.06.2014 23:02 15,1 C 13,9 C 74 % 1022,4 hPa 0,0 l/m 0 min 0 min 0,0 UV-I 0 W/m 12,6 km/h (3 Bft)
22.06.2014 23:03 15,1 C 13,9 C 74 % 1022,4 hPa 0,0 l/m 0 min 0 min 0,0 UV-I 0 W/m 12,6 km/h (3 Bft)
22.06.2014 23:04 15,1 C 13,9 C 74 % 1022,4 hPa 0,0 l/m 0 min 0 min 0,0 UV-I 0 W/m 10,5 km/h (2 Bft)
22.06.2014 23:05 15,0 C 13,9 C 74 % 1022,4 hPa 0,0 l/m 0 min 0 min 0,0 UV-I 0 W/m 8,4 km/h (2 Bft)
22.06.2014 23:06 15,0 C 13,9 C 74 % 1022,4 hPa 0,0 l/m 0 min 0 min 0,0 UV-I 0 W/m 8,4 km/h (2 Bft)
22.06.2014 23:07 14,9 C 13,9 C 75 % 1022,4 hPa 0,0 l/m 0 min 0 min 0,0 UV-I 0 W/m 10,5 km/h (2 Bft)
22.06.2014 23:08 14,9 C 13,3 C 75 % 1022,4 hPa 0,0 l/m 0 min 0 min 0,0 UV-I 0 W/m 10,5 km/h (2 Bft)
22.06.2014 23:09 14,9 C 13,3 C 75 % 1022,4 hPa 0,0 l/m 0 min 0 min 0,0 UV-I 0 W/m 8,4 km/h (2 Bft)
22.06.2014 23:10 14,8 C 13,3 C 75 % 1022,4 hPa 0,0 l/m 0 min 0 min 0,0 UV-I 0 W/m 6,3 km/h (2 Bft)
22.06.2014 23:11 14,8 C 13,3 C 75 % 1022,4 hPa 0,0 l/m 0 min 0 min 0,0 UV-I 0 W/m 0,0 km/h (0 Bft)
22.06.2014 23:12 14,7 C 13,3 C 75 % 1022,4 hPa 0,0 l/m 0 min 0 min 0,0 UV-I 0 W/m 4,2 km/h (1 Bft)
22.06.2014 23:13 14,7 C 13,3 C 75 % 1022,4 hPa 0,0 l/m 0 min 0 min 0,0 UV-I 0 W/m 0,0 km/h (0 Bft)
22.06.2014 23:14 14,7 C 13,3 C 75 % 1022,5 hPa 0,0 l/m 0 min 0 min 0,0 UV-I 0 W/m 0,0 km/h (0 Bft)
22.06.2014 23:15 14,6 C 13,3 C 76 % 1022,5 hPa 0,0 l/m 0 min 0 min 0,0 UV-I 0 W/m 0,0 km/h (0 Bft)
22.06.2014 23:16 14,6 C 13,3 C 76 % 1022,5 hPa 0,0 l/m 0 min 0 min 0,0 UV-I 0 W/m 0,0 km/h (0 Bft)
22.06.2014 23:17 14,5 C 12,8 C 76 % 1022,4 hPa 0,0 l/m 0 min 0 min 0,0 UV-I 0 W/m 0,0 km/h (0 Bft)
22.06.2014 23:18 14,5 C 12,8 C 76 % 1022,5 hPa 0,0 l/m 0 min 0 min 0,0 UV-I 0 W/m 0,0 km/h (0 Bft)
22.06.2014 23:19 14,4 C 12,8 C 76 % 1022,5 hPa 0,0 l/m 0 min 0 min 0,0 UV-I 0 W/m 0,0 km/h (0 Bft)
22.06.2014 23:20 14,4 C 12,8 C 76 % 1022,5 hPa 0,0 l/m 0 min 0 min 0,0 UV-I 0 W/m 0,0 km/h (0 Bft)
22.06.2014 23:22 14,4 C 12,8 C 76 % 1022,5 hPa 0,0 l/m 0 min 0 min 0,0 UV-I 0 W/m 0,0 km/h (0 Bft)
22.06.2014 23:24 14,3 C 12,8 C 77 % 1022,5 hPa 0,0 l/m 0 min 0 min 0,0 UV-I 0 W/m 0,0 km/h (0 Bft)
22.06.2014 23:26 14,2 C 12,8 C 77 % 1022,6 hPa 0,0 l/m 0 min 0 min 0,0 UV-I 0 W/m 2,1 km/h (1 Bft)
22.06.2014 23:28 14,2 C 12,8 C 77 % 1022,5 hPa 0,0 l/m 0 min 0 min 0,0 UV-I 0 W/m 0,0 km/h (0 Bft)
22.06.2014 23:30 14,2 C 12,2 C 78 % 1022,6 hPa 0,0 l/m 0 min 0 min 0,0 UV-I 0 W/m 6,3 km/h (2 Bft)
22.06.2014 23:32 14,1 C 12,2 C 78 % 1022,6 hPa 0,0 l/m 0 min 0 min 0,0 UV-I 0 W/m 6,3 km/h (2 Bft)
22.06.2014 23:34 14,1 C 12,2 C 78 % 1022,5 hPa 0,0 l/m 0 min 0 min 0,0 UV-I 0 W/m 0,0 km/h (0 Bft)
22.06.2014 23:36 14,0 C 12,2 C 78 % 1022,6 hPa 0,0 l/m 0 min 0 min 0,0 UV-I 0 W/m 0,0 km/h (0 Bft)
22.06.2014 23:38 13,9 C 12,2 C 79 % 1022,6 hPa 0,0 l/m 0 min 0 min 0,0 UV-I 0 W/m 0,0 km/h (0 Bft)
22.06.2014 23:40 13,9 C 12,2 C 79 % 1022,6 hPa 0,0 l/m 0 min 0 min 0,0 UV-I 0 W/m 0,0 km/h (0 Bft)
22.06.2014 23:42 13,8 C 12,2 C 79 % 1022,6 hPa 0,0 l/m 0 min 0 min 0,0 UV-I 0 W/m 0,0 km/h (0 Bft)
22.06.2014 23:44 13,8 C 11,7 C 79 % 1022,6 hPa 0,0 l/m 0 min 0 min 0,0 UV-I 0 W/m 0,0 km/h (0 Bft)
22.06.2014 23:46 13,7 C 11,7 C 79 % 1022,5 hPa 0,0 l/m 0 min 0 min 0,0 UV-I 0 W/m 2,1 km/h (1 Bft)
22.06.2014 23:48 13,7 C 11,7 C 80 % 1022,6 hPa 0,0 l/m 0 min 0 min 0,0 UV-I 0 W/m 0,0 km/h (0 Bft)
22.06.2014 23:50 13,7 C 11,7 C 80 % 1022,5 hPa 0,0 l/m 0 min 0 min 0,0 UV-I 0 W/m 0,0 km/h (0 Bft)
22.06.2014 23:52 13,6 C 11,7 C 80 % 1022,6 hPa 0,0 l/m 0 min 0 min 0,0 UV-I 0 W/m 0,0 km/h (0 Bft)
22.06.2014 23:54 13,4 C 11,7 C 81 % 1022,5 hPa 0,0 l/m 0 min 0 min 0,0 UV-I 0 W/m 0,0 km/h (0 Bft)
22.06.2014 23:56 13,3 C 11,7 C 81 % 1022,6 hPa 0,0 l/m 0 min 0 min 0,0 UV-I 0 W/m 0,0 km/h (0 Bft)
22.06.2014 23:58 13,3 C 11,7 C 81 % 1022,6 hPa 0,0 l/m 0 min 0 min 0,0 UV-I 0 W/m 0,0 km/h (0 Bft)
_ Min-Zeit 04:50 04:18 13:24 00:50 - - - - - 00:00
Minimum _ 12,0 C 10,6 C 52 % 1017,5 hPa - - - - - 0,0 km/h (0 Bft)
_ Max-Zeit 13:38 11:14 04:52 23:26 00:00 06:32 00:00 13:42 13:36 13:46
Maximum _ 22,3 C 26,7 C 96 % 1022,6 hPa 0,0 l/m 2 min 0 min 5,6 UV-I 1257 W/m 29,3 km/h
NO (5 Bft)
Durchschnitt _ 16,8 C 16,4 C 74 % 1019,9 hPa #0,0 l/m #7:50 h #0 min. 2,3 UV-I 400 W/m 9,5 km/h (2 Bft)
© 2014 W. Hausmann